<?xml version="1.0" encoding="UTF-8" standalone="no" ?>
<gpx xmlns="http://www.topografix.com/GPX/1/1" xmlns:xsi="http://www.w3.org/2001/XMLSchema-instance" xsi:schemaLocation="http://www.topografix.com/GPX/1/1 http://www.topografix.com/GPX/1/1/gpx.xsd" version="1.1" creator="VisuGPX - https://www.visugpx.com">
  <metadata>
    <name>Le lac d\'Arizes</name>
    <desc><![CDATA[Au pied du Pic du Midi dans les Pyrénées, une belle balade facile empruntant une partie du sentier des muletiers.]]></desc>
  </metadata>
  <trk>
    <name><![CDATA[Tracé actuel: 02 NOV 2014 09:58]]></name>
    <trkseg>
      <trkpt lat="42.92541" lon="0.19287">
        <ele>1430.1</ele>
        <time>2014-11-02T08:58:26Z</time>
      </trkpt>
      <trkpt lat="42.92539" lon="0.19285">
        <ele>1431.06</ele>
        <time>2014-11-02T08:59:59Z</time>
      </trkpt>
      <trkpt lat="42.92536" lon="0.1927">
        <ele>1431.54</ele>
        <time>2014-11-02T09:00:22Z</time>
      </trkpt>
      <trkpt lat="42.92538" lon="0.19259">
        <ele>1432.5</ele>
        <time>2014-11-02T09:00:40Z</time>
      </trkpt>
      <trkpt lat="42.92539" lon="0.19249">
        <ele>1432.98</ele>
        <time>2014-11-02T09:00:54Z</time>
      </trkpt>
      <trkpt lat="42.92539" lon="0.19234">
        <ele>1433.46</ele>
        <time>2014-11-02T09:01:02Z</time>
      </trkpt>
      <trkpt lat="42.92541" lon="0.1922">
        <ele>1434.42</ele>
        <time>2014-11-02T09:01:11Z</time>
      </trkpt>
      <trkpt lat="42.92542" lon="0.19209">
        <ele>1435.39</ele>
        <time>2014-11-02T09:01:19Z</time>
      </trkpt>
      <trkpt lat="42.92544" lon="0.19196">
        <ele>1436.83</ele>
        <time>2014-11-02T09:01:29Z</time>
      </trkpt>
      <trkpt lat="42.92545" lon="0.19181">
        <ele>1437.31</ele>
        <time>2014-11-02T09:01:38Z</time>
      </trkpt>
      <trkpt lat="42.92547" lon="0.1917">
        <ele>1438.75</ele>
        <time>2014-11-02T09:01:55Z</time>
      </trkpt>
      <trkpt lat="42.92551" lon="0.19156">
        <ele>1439.23</ele>
        <time>2014-11-02T09:02:04Z</time>
      </trkpt>
      <trkpt lat="42.92555" lon="0.19145">
        <ele>1440.67</ele>
        <time>2014-11-02T09:02:14Z</time>
      </trkpt>
      <trkpt lat="42.92557" lon="0.19134">
        <ele>1442.11</ele>
        <time>2014-11-02T09:02:24Z</time>
      </trkpt>
      <trkpt lat="42.9256" lon="0.19119">
        <ele>1443.08</ele>
        <time>2014-11-02T09:02:34Z</time>
      </trkpt>
      <trkpt lat="42.92563" lon="0.19108">
        <ele>1443.56</ele>
        <time>2014-11-02T09:02:45Z</time>
      </trkpt>
      <trkpt lat="42.92566" lon="0.19095">
        <ele>1445</ele>
        <time>2014-11-02T09:02:56Z</time>
      </trkpt>
      <trkpt lat="42.92572" lon="0.19087">
        <ele>1445.48</ele>
        <time>2014-11-02T09:03:07Z</time>
      </trkpt>
      <trkpt lat="42.92575" lon="0.19076">
        <ele>1446.92</ele>
        <time>2014-11-02T09:03:17Z</time>
      </trkpt>
      <trkpt lat="42.92578" lon="0.19063">
        <ele>1448.36</ele>
        <time>2014-11-02T09:03:28Z</time>
      </trkpt>
      <trkpt lat="42.92581" lon="0.19052">
        <ele>1448.36</ele>
        <time>2014-11-02T09:03:38Z</time>
      </trkpt>
      <trkpt lat="42.92585" lon="0.19041">
        <ele>1450.77</ele>
        <time>2014-11-02T09:03:48Z</time>
      </trkpt>
      <trkpt lat="42.92589" lon="0.1903">
        <ele>1452.69</ele>
        <time>2014-11-02T09:04:00Z</time>
      </trkpt>
      <trkpt lat="42.92592" lon="0.19019">
        <ele>1454.61</ele>
        <time>2014-11-02T09:04:11Z</time>
      </trkpt>
      <trkpt lat="42.92595" lon="0.19007">
        <ele>1456.05</ele>
        <time>2014-11-02T09:04:22Z</time>
      </trkpt>
      <trkpt lat="42.92596" lon="0.18994">
        <ele>1457.5</ele>
        <time>2014-11-02T09:04:33Z</time>
      </trkpt>
      <trkpt lat="42.926" lon="0.18982">
        <ele>1458.94</ele>
        <time>2014-11-02T09:04:45Z</time>
      </trkpt>
      <trkpt lat="42.926" lon="0.1897">
        <ele>1460.86</ele>
        <time>2014-11-02T09:04:56Z</time>
      </trkpt>
      <trkpt lat="42.926" lon="0.18959">
        <ele>1462.3</ele>
        <time>2014-11-02T09:05:07Z</time>
      </trkpt>
      <trkpt lat="42.92601" lon="0.18946">
        <ele>1463.74</ele>
        <time>2014-11-02T09:05:17Z</time>
      </trkpt>
      <trkpt lat="42.92607" lon="0.18952">
        <ele>1463.74</ele>
        <time>2014-11-02T09:07:22Z</time>
      </trkpt>
      <trkpt lat="42.92605" lon="0.18955">
        <ele>1463.26</ele>
        <time>2014-11-02T09:07:46Z</time>
      </trkpt>
      <trkpt lat="42.92608" lon="0.1894">
        <ele>1465.67</ele>
        <time>2014-11-02T09:08:03Z</time>
      </trkpt>
      <trkpt lat="42.92608" lon="0.18927">
        <ele>1466.15</ele>
        <time>2014-11-02T09:08:16Z</time>
      </trkpt>
      <trkpt lat="42.92607" lon="0.18914">
        <ele>1467.11</ele>
        <time>2014-11-02T09:08:29Z</time>
      </trkpt>
      <trkpt lat="42.92606" lon="0.18902">
        <ele>1468.55</ele>
        <time>2014-11-02T09:08:41Z</time>
      </trkpt>
      <trkpt lat="42.92604" lon="0.1889">
        <ele>1469.51</ele>
        <time>2014-11-02T09:08:52Z</time>
      </trkpt>
      <trkpt lat="42.92601" lon="0.18878">
        <ele>1470.95</ele>
        <time>2014-11-02T09:09:03Z</time>
      </trkpt>
      <trkpt lat="42.92598" lon="0.18866">
        <ele>1472.88</ele>
        <time>2014-11-02T09:09:14Z</time>
      </trkpt>
      <trkpt lat="42.92593" lon="0.18856">
        <ele>1473.84</ele>
        <time>2014-11-02T09:09:24Z</time>
      </trkpt>
      <trkpt lat="42.92589" lon="0.18844">
        <ele>1476.24</ele>
        <time>2014-11-02T09:09:37Z</time>
      </trkpt>
      <trkpt lat="42.92588" lon="0.1883">
        <ele>1478.16</ele>
        <time>2014-11-02T09:09:51Z</time>
      </trkpt>
      <trkpt lat="42.92588" lon="0.18815">
        <ele>1480.57</ele>
        <time>2014-11-02T09:10:05Z</time>
      </trkpt>
      <trkpt lat="42.92589" lon="0.18803">
        <ele>1482.49</ele>
        <time>2014-11-02T09:10:20Z</time>
      </trkpt>
      <trkpt lat="42.92594" lon="0.18793">
        <ele>1484.41</ele>
        <time>2014-11-02T09:10:38Z</time>
      </trkpt>
      <trkpt lat="42.92594" lon="0.18781">
        <ele>1487.3</ele>
        <time>2014-11-02T09:10:54Z</time>
      </trkpt>
      <trkpt lat="42.92597" lon="0.18768">
        <ele>1488.26</ele>
        <time>2014-11-02T09:11:06Z</time>
      </trkpt>
      <trkpt lat="42.92602" lon="0.18757">
        <ele>1490.18</ele>
        <time>2014-11-02T09:11:17Z</time>
      </trkpt>
      <trkpt lat="42.92604" lon="0.18745">
        <ele>1492.1</ele>
        <time>2014-11-02T09:11:32Z</time>
      </trkpt>
      <trkpt lat="42.92606" lon="0.18732">
        <ele>1493.55</ele>
        <time>2014-11-02T09:11:46Z</time>
      </trkpt>
      <trkpt lat="42.92607" lon="0.18719">
        <ele>1494.51</ele>
        <time>2014-11-02T09:12:02Z</time>
      </trkpt>
      <trkpt lat="42.92608" lon="0.18706">
        <ele>1496.43</ele>
        <time>2014-11-02T09:12:14Z</time>
      </trkpt>
      <trkpt lat="42.92611" lon="0.18695">
        <ele>1496.91</ele>
        <time>2014-11-02T09:12:26Z</time>
      </trkpt>
      <trkpt lat="42.92611" lon="0.18681">
        <ele>1498.35</ele>
        <time>2014-11-02T09:12:37Z</time>
      </trkpt>
      <trkpt lat="42.92615" lon="0.18669">
        <ele>1500.27</ele>
        <time>2014-11-02T09:13:00Z</time>
      </trkpt>
      <trkpt lat="42.92615" lon="0.18656">
        <ele>1503.16</ele>
        <time>2014-11-02T09:13:26Z</time>
      </trkpt>
      <trkpt lat="42.92618" lon="0.18645">
        <ele>1505.56</ele>
        <time>2014-11-02T09:14:08Z</time>
      </trkpt>
      <trkpt lat="42.92621" lon="0.18634">
        <ele>1507.97</ele>
        <time>2014-11-02T09:14:32Z</time>
      </trkpt>
      <trkpt lat="42.92621" lon="0.18621">
        <ele>1509.41</ele>
        <time>2014-11-02T09:14:45Z</time>
      </trkpt>
      <trkpt lat="42.92623" lon="0.18607">
        <ele>1510.85</ele>
        <time>2014-11-02T09:15:00Z</time>
      </trkpt>
      <trkpt lat="42.92626" lon="0.18595">
        <ele>1512.77</ele>
        <time>2014-11-02T09:15:14Z</time>
      </trkpt>
      <trkpt lat="42.9263" lon="0.18585">
        <ele>1514.21</ele>
        <time>2014-11-02T09:15:30Z</time>
      </trkpt>
      <trkpt lat="42.92633" lon="0.18572">
        <ele>1516.14</ele>
        <time>2014-11-02T09:15:48Z</time>
      </trkpt>
      <trkpt lat="42.92637" lon="0.18561">
        <ele>1518.06</ele>
        <time>2014-11-02T09:16:02Z</time>
      </trkpt>
      <trkpt lat="42.92645" lon="0.18555">
        <ele>1519.5</ele>
        <time>2014-11-02T09:16:15Z</time>
      </trkpt>
      <trkpt lat="42.9265" lon="0.18545">
        <ele>1521.42</ele>
        <time>2014-11-02T09:16:27Z</time>
      </trkpt>
      <trkpt lat="42.92658" lon="0.18538">
        <ele>1523.83</ele>
        <time>2014-11-02T09:16:41Z</time>
      </trkpt>
      <trkpt lat="42.92665" lon="0.1853">
        <ele>1524.31</ele>
        <time>2014-11-02T09:16:54Z</time>
      </trkpt>
      <trkpt lat="42.92671" lon="0.18523">
        <ele>1526.71</ele>
        <time>2014-11-02T09:17:10Z</time>
      </trkpt>
      <trkpt lat="42.92677" lon="0.18514">
        <ele>1528.15</ele>
        <time>2014-11-02T09:17:24Z</time>
      </trkpt>
      <trkpt lat="42.92683" lon="0.18505">
        <ele>1529.11</ele>
        <time>2014-11-02T09:17:38Z</time>
      </trkpt>
      <trkpt lat="42.92691" lon="0.18498">
        <ele>1530.56</ele>
        <time>2014-11-02T09:17:50Z</time>
      </trkpt>
      <trkpt lat="42.92698" lon="0.18488">
        <ele>1532</ele>
        <time>2014-11-02T09:18:04Z</time>
      </trkpt>
      <trkpt lat="42.92704" lon="0.18477">
        <ele>1532.96</ele>
        <time>2014-11-02T09:18:16Z</time>
      </trkpt>
      <trkpt lat="42.92712" lon="0.18471">
        <ele>1533.44</ele>
        <time>2014-11-02T09:18:26Z</time>
      </trkpt>
      <trkpt lat="42.92719" lon="0.18461">
        <ele>1534.4</ele>
        <time>2014-11-02T09:18:37Z</time>
      </trkpt>
      <trkpt lat="42.92725" lon="0.18451">
        <ele>1535.84</ele>
        <time>2014-11-02T09:19:04Z</time>
      </trkpt>
      <trkpt lat="42.92733" lon="0.18449">
        <ele>1536.8</ele>
        <time>2014-11-02T09:19:26Z</time>
      </trkpt>
      <trkpt lat="42.92742" lon="0.18445">
        <ele>1537.77</ele>
        <time>2014-11-02T09:19:37Z</time>
      </trkpt>
      <trkpt lat="42.92752" lon="0.1844">
        <ele>1539.21</ele>
        <time>2014-11-02T09:19:49Z</time>
      </trkpt>
      <trkpt lat="42.92759" lon="0.18432">
        <ele>1540.65</ele>
        <time>2014-11-02T09:20:03Z</time>
      </trkpt>
      <trkpt lat="42.92766" lon="0.18424">
        <ele>1542.09</ele>
        <time>2014-11-02T09:20:15Z</time>
      </trkpt>
      <trkpt lat="42.92773" lon="0.18418">
        <ele>1543.05</ele>
        <time>2014-11-02T09:20:26Z</time>
      </trkpt>
      <trkpt lat="42.9278" lon="0.1841">
        <ele>1544.98</ele>
        <time>2014-11-02T09:20:38Z</time>
      </trkpt>
      <trkpt lat="42.92783" lon="0.184">
        <ele>1546.42</ele>
        <time>2014-11-02T09:20:50Z</time>
      </trkpt>
      <trkpt lat="42.9279" lon="0.1839">
        <ele>1546.9</ele>
        <time>2014-11-02T09:21:01Z</time>
      </trkpt>
      <trkpt lat="42.92792" lon="0.18381">
        <ele>1548.34</ele>
        <time>2014-11-02T09:21:13Z</time>
      </trkpt>
      <trkpt lat="42.92793" lon="0.18367">
        <ele>1549.3</ele>
        <time>2014-11-02T09:21:23Z</time>
      </trkpt>
      <trkpt lat="42.92795" lon="0.18357">
        <ele>1551.22</ele>
        <time>2014-11-02T09:21:36Z</time>
      </trkpt>
      <trkpt lat="42.92798" lon="0.18349">
        <ele>1552.19</ele>
        <time>2014-11-02T09:21:47Z</time>
      </trkpt>
      <trkpt lat="42.92797" lon="0.18334">
        <ele>1552.67</ele>
        <time>2014-11-02T09:21:57Z</time>
      </trkpt>
      <trkpt lat="42.92798" lon="0.18321">
        <ele>1553.63</ele>
        <time>2014-11-02T09:22:07Z</time>
      </trkpt>
      <trkpt lat="42.92801" lon="0.18312">
        <ele>1556.03</ele>
        <time>2014-11-02T09:22:17Z</time>
      </trkpt>
      <trkpt lat="42.92803" lon="0.18302">
        <ele>1556.99</ele>
        <time>2014-11-02T09:22:29Z</time>
      </trkpt>
      <trkpt lat="42.92811" lon="0.18289">
        <ele>1558.43</ele>
        <time>2014-11-02T09:22:41Z</time>
      </trkpt>
      <trkpt lat="42.92817" lon="0.18279">
        <ele>1560.36</ele>
        <time>2014-11-02T09:22:52Z</time>
      </trkpt>
      <trkpt lat="42.92821" lon="0.18269">
        <ele>1561.32</ele>
        <time>2014-11-02T09:23:03Z</time>
      </trkpt>
      <trkpt lat="42.92823" lon="0.18265">
        <ele>1561.8</ele>
        <time>2014-11-02T09:24:15Z</time>
      </trkpt>
      <trkpt lat="42.92831" lon="0.18257">
        <ele>1562.28</ele>
        <time>2014-11-02T09:25:19Z</time>
      </trkpt>
      <trkpt lat="42.92837" lon="0.18248">
        <ele>1563.24</ele>
        <time>2014-11-02T09:25:31Z</time>
      </trkpt>
      <trkpt lat="42.92841" lon="0.18234">
        <ele>1563.72</ele>
        <time>2014-11-02T09:25:43Z</time>
      </trkpt>
      <trkpt lat="42.92844" lon="0.18223">
        <ele>1564.2</ele>
        <time>2014-11-02T09:25:54Z</time>
      </trkpt>
      <trkpt lat="42.92847" lon="0.18212">
        <ele>1565.16</ele>
        <time>2014-11-02T09:26:05Z</time>
      </trkpt>
      <trkpt lat="42.92852" lon="0.182">
        <ele>1565.64</ele>
        <time>2014-11-02T09:26:15Z</time>
      </trkpt>
      <trkpt lat="42.92858" lon="0.18189">
        <ele>1567.09</ele>
        <time>2014-11-02T09:26:24Z</time>
      </trkpt>
      <trkpt lat="42.92864" lon="0.18178">
        <ele>1568.53</ele>
        <time>2014-11-02T09:26:34Z</time>
      </trkpt>
      <trkpt lat="42.92871" lon="0.18168">
        <ele>1568.53</ele>
        <time>2014-11-02T09:26:44Z</time>
      </trkpt>
      <trkpt lat="42.92879" lon="0.18159">
        <ele>1568.53</ele>
        <time>2014-11-02T09:26:53Z</time>
      </trkpt>
      <trkpt lat="42.92887" lon="0.18151">
        <ele>1568.05</ele>
        <time>2014-11-02T09:27:03Z</time>
      </trkpt>
      <trkpt lat="42.92895" lon="0.18144">
        <ele>1567.57</ele>
        <time>2014-11-02T09:27:11Z</time>
      </trkpt>
      <trkpt lat="42.92902" lon="0.18134">
        <ele>1566.61</ele>
        <time>2014-11-02T09:27:19Z</time>
      </trkpt>
      <trkpt lat="42.92912" lon="0.1813">
        <ele>1566.12</ele>
        <time>2014-11-02T09:27:28Z</time>
      </trkpt>
      <trkpt lat="42.92921" lon="0.18126">
        <ele>1567.09</ele>
        <time>2014-11-02T09:27:37Z</time>
      </trkpt>
      <trkpt lat="42.92926" lon="0.18115">
        <ele>1569.01</ele>
        <time>2014-11-02T09:27:48Z</time>
      </trkpt>
      <trkpt lat="42.92933" lon="0.18104">
        <ele>1569.01</ele>
        <time>2014-11-02T09:27:57Z</time>
      </trkpt>
      <trkpt lat="42.9294" lon="0.18095">
        <ele>1569.01</ele>
        <time>2014-11-02T09:28:06Z</time>
      </trkpt>
      <trkpt lat="42.92947" lon="0.18085">
        <ele>1570.45</ele>
        <time>2014-11-02T09:28:14Z</time>
      </trkpt>
      <trkpt lat="42.92952" lon="0.18076">
        <ele>1570.45</ele>
        <time>2014-11-02T09:28:22Z</time>
      </trkpt>
      <trkpt lat="42.92957" lon="0.18067">
        <ele>1569.49</ele>
        <time>2014-11-02T09:28:31Z</time>
      </trkpt>
      <trkpt lat="42.92963" lon="0.18057">
        <ele>1569.49</ele>
        <time>2014-11-02T09:28:40Z</time>
      </trkpt>
      <trkpt lat="42.92965" lon="0.18045">
        <ele>1570.45</ele>
        <time>2014-11-02T09:28:50Z</time>
      </trkpt>
      <trkpt lat="42.92966" lon="0.1803">
        <ele>1571.41</ele>
        <time>2014-11-02T09:29:00Z</time>
      </trkpt>
      <trkpt lat="42.92965" lon="0.18017">
        <ele>1571.41</ele>
        <time>2014-11-02T09:29:09Z</time>
      </trkpt>
      <trkpt lat="42.92962" lon="0.18006">
        <ele>1570.93</ele>
        <time>2014-11-02T09:29:18Z</time>
      </trkpt>
      <trkpt lat="42.92964" lon="0.17992">
        <ele>1570.45</ele>
        <time>2014-11-02T09:29:27Z</time>
      </trkpt>
      <trkpt lat="42.92969" lon="0.17979">
        <ele>1570.93</ele>
        <time>2014-11-02T09:29:36Z</time>
      </trkpt>
      <trkpt lat="42.92973" lon="0.1797">
        <ele>1571.41</ele>
        <time>2014-11-02T09:29:48Z</time>
      </trkpt>
      <trkpt lat="42.92976" lon="0.17962">
        <ele>1572.37</ele>
        <time>2014-11-02T09:30:12Z</time>
      </trkpt>
      <trkpt lat="42.92981" lon="0.1795">
        <ele>1572.37</ele>
        <time>2014-11-02T09:30:21Z</time>
      </trkpt>
      <trkpt lat="42.92985" lon="0.17939">
        <ele>1573.82</ele>
        <time>2014-11-02T09:30:30Z</time>
      </trkpt>
      <trkpt lat="42.92992" lon="0.17928">
        <ele>1574.78</ele>
        <time>2014-11-02T09:30:40Z</time>
      </trkpt>
      <trkpt lat="42.92997" lon="0.17918">
        <ele>1575.74</ele>
        <time>2014-11-02T09:30:50Z</time>
      </trkpt>
      <trkpt lat="42.93001" lon="0.17906">
        <ele>1576.22</ele>
        <time>2014-11-02T09:31:00Z</time>
      </trkpt>
      <trkpt lat="42.93005" lon="0.17894">
        <ele>1577.18</ele>
        <time>2014-11-02T09:31:10Z</time>
      </trkpt>
      <trkpt lat="42.93008" lon="0.17881">
        <ele>1578.14</ele>
        <time>2014-11-02T09:31:20Z</time>
      </trkpt>
      <trkpt lat="42.93011" lon="0.17868">
        <ele>1580.06</ele>
        <time>2014-11-02T09:31:31Z</time>
      </trkpt>
      <trkpt lat="42.93015" lon="0.17859">
        <ele>1581.03</ele>
        <time>2014-11-02T09:31:40Z</time>
      </trkpt>
      <trkpt lat="42.9302" lon="0.17847">
        <ele>1581.51</ele>
        <time>2014-11-02T09:31:50Z</time>
      </trkpt>
      <trkpt lat="42.93024" lon="0.17836">
        <ele>1582.47</ele>
        <time>2014-11-02T09:32:00Z</time>
      </trkpt>
      <trkpt lat="42.93028" lon="0.17825">
        <ele>1582.95</ele>
        <time>2014-11-02T09:32:09Z</time>
      </trkpt>
      <trkpt lat="42.93034" lon="0.17812">
        <ele>1583.91</ele>
        <time>2014-11-02T09:32:19Z</time>
      </trkpt>
      <trkpt lat="42.93038" lon="0.178">
        <ele>1585.35</ele>
        <time>2014-11-02T09:32:30Z</time>
      </trkpt>
      <trkpt lat="42.93042" lon="0.17788">
        <ele>1586.31</ele>
        <time>2014-11-02T09:32:41Z</time>
      </trkpt>
      <trkpt lat="42.93047" lon="0.17779">
        <ele>1587.27</ele>
        <time>2014-11-02T09:32:52Z</time>
      </trkpt>
      <trkpt lat="42.9305" lon="0.17767">
        <ele>1588.24</ele>
        <time>2014-11-02T09:33:01Z</time>
      </trkpt>
      <trkpt lat="42.93055" lon="0.17756">
        <ele>1588.72</ele>
        <time>2014-11-02T09:33:11Z</time>
      </trkpt>
      <trkpt lat="42.9306" lon="0.17745">
        <ele>1589.2</ele>
        <time>2014-11-02T09:33:21Z</time>
      </trkpt>
      <trkpt lat="42.93066" lon="0.17734">
        <ele>1590.16</ele>
        <time>2014-11-02T09:33:31Z</time>
      </trkpt>
      <trkpt lat="42.9307" lon="0.17721">
        <ele>1590.16</ele>
        <time>2014-11-02T09:33:41Z</time>
      </trkpt>
      <trkpt lat="42.93075" lon="0.17711">
        <ele>1591.12</ele>
        <time>2014-11-02T09:33:51Z</time>
      </trkpt>
      <trkpt lat="42.93081" lon="0.17701">
        <ele>1591.6</ele>
        <time>2014-11-02T09:34:01Z</time>
      </trkpt>
      <trkpt lat="42.93087" lon="0.17691">
        <ele>1592.56</ele>
        <time>2014-11-02T09:34:11Z</time>
      </trkpt>
      <trkpt lat="42.93091" lon="0.1768">
        <ele>1593.52</ele>
        <time>2014-11-02T09:34:20Z</time>
      </trkpt>
      <trkpt lat="42.93097" lon="0.1767">
        <ele>1594</ele>
        <time>2014-11-02T09:34:30Z</time>
      </trkpt>
      <trkpt lat="42.93101" lon="0.1766">
        <ele>1594.96</ele>
        <time>2014-11-02T09:34:38Z</time>
      </trkpt>
      <trkpt lat="42.93107" lon="0.17652">
        <ele>1594.96</ele>
        <time>2014-11-02T09:34:47Z</time>
      </trkpt>
      <trkpt lat="42.93113" lon="0.17641">
        <ele>1596.41</ele>
        <time>2014-11-02T09:34:57Z</time>
      </trkpt>
      <trkpt lat="42.9312" lon="0.17632">
        <ele>1596.89</ele>
        <time>2014-11-02T09:35:07Z</time>
      </trkpt>
      <trkpt lat="42.93125" lon="0.17622">
        <ele>1596.89</ele>
        <time>2014-11-02T09:35:15Z</time>
      </trkpt>
      <trkpt lat="42.93127" lon="0.1761">
        <ele>1597.85</ele>
        <time>2014-11-02T09:35:25Z</time>
      </trkpt>
      <trkpt lat="42.9313" lon="0.17601">
        <ele>1598.81</ele>
        <time>2014-11-02T09:35:37Z</time>
      </trkpt>
      <trkpt lat="42.93135" lon="0.17589">
        <ele>1599.29</ele>
        <time>2014-11-02T09:35:47Z</time>
      </trkpt>
      <trkpt lat="42.93138" lon="0.17578">
        <ele>1600.25</ele>
        <time>2014-11-02T09:35:57Z</time>
      </trkpt>
      <trkpt lat="42.93146" lon="0.17567">
        <ele>1601.21</ele>
        <time>2014-11-02T09:36:07Z</time>
      </trkpt>
      <trkpt lat="42.9315" lon="0.17556">
        <ele>1601.69</ele>
        <time>2014-11-02T09:36:16Z</time>
      </trkpt>
      <trkpt lat="42.93155" lon="0.17545">
        <ele>1602.66</ele>
        <time>2014-11-02T09:36:24Z</time>
      </trkpt>
      <trkpt lat="42.9316" lon="0.17533">
        <ele>1602.17</ele>
        <time>2014-11-02T09:36:34Z</time>
      </trkpt>
      <trkpt lat="42.93167" lon="0.17525">
        <ele>1601.69</ele>
        <time>2014-11-02T09:36:44Z</time>
      </trkpt>
      <trkpt lat="42.93176" lon="0.17519">
        <ele>1601.21</ele>
        <time>2014-11-02T09:36:54Z</time>
      </trkpt>
      <trkpt lat="42.93172" lon="0.17508">
        <ele>1603.62</ele>
        <time>2014-11-02T09:37:04Z</time>
      </trkpt>
      <trkpt lat="42.93172" lon="0.17497">
        <ele>1605.06</ele>
        <time>2014-11-02T09:37:17Z</time>
      </trkpt>
      <trkpt lat="42.93182" lon="0.17493">
        <ele>1606.02</ele>
        <time>2014-11-02T09:37:28Z</time>
      </trkpt>
      <trkpt lat="42.93188" lon="0.17484">
        <ele>1605.06</ele>
        <time>2014-11-02T09:37:42Z</time>
      </trkpt>
      <trkpt lat="42.93185" lon="0.17474">
        <ele>1606.02</ele>
        <time>2014-11-02T09:37:52Z</time>
      </trkpt>
      <trkpt lat="42.93186" lon="0.17461">
        <ele>1607.46</ele>
        <time>2014-11-02T09:38:02Z</time>
      </trkpt>
      <trkpt lat="42.9319" lon="0.17453">
        <ele>1607.94</ele>
        <time>2014-11-02T09:38:44Z</time>
      </trkpt>
      <trkpt lat="42.93193" lon="0.17442">
        <ele>1608.9</ele>
        <time>2014-11-02T09:38:55Z</time>
      </trkpt>
      <trkpt lat="42.93193" lon="0.1743">
        <ele>1609.86</ele>
        <time>2014-11-02T09:39:06Z</time>
      </trkpt>
      <trkpt lat="42.93195" lon="0.17416">
        <ele>1610.35</ele>
        <time>2014-11-02T09:39:15Z</time>
      </trkpt>
      <trkpt lat="42.93196" lon="0.17402">
        <ele>1611.31</ele>
        <time>2014-11-02T09:39:24Z</time>
      </trkpt>
      <trkpt lat="42.93201" lon="0.1739">
        <ele>1612.27</ele>
        <time>2014-11-02T09:39:33Z</time>
      </trkpt>
      <trkpt lat="42.93205" lon="0.17378">
        <ele>1612.75</ele>
        <time>2014-11-02T09:39:42Z</time>
      </trkpt>
      <trkpt lat="42.93208" lon="0.17367">
        <ele>1612.75</ele>
        <time>2014-11-02T09:39:51Z</time>
      </trkpt>
      <trkpt lat="42.9321" lon="0.17354">
        <ele>1613.23</ele>
        <time>2014-11-02T09:40:00Z</time>
      </trkpt>
      <trkpt lat="42.93214" lon="0.17341">
        <ele>1613.71</ele>
        <time>2014-11-02T09:40:09Z</time>
      </trkpt>
      <trkpt lat="42.93219" lon="0.17331">
        <ele>1613.71</ele>
        <time>2014-11-02T09:40:27Z</time>
      </trkpt>
      <trkpt lat="42.93223" lon="0.17319">
        <ele>1613.23</ele>
        <time>2014-11-02T09:40:38Z</time>
      </trkpt>
      <trkpt lat="42.93229" lon="0.1731">
        <ele>1614.19</ele>
        <time>2014-11-02T09:40:48Z</time>
      </trkpt>
      <trkpt lat="42.93236" lon="0.17301">
        <ele>1615.15</ele>
        <time>2014-11-02T09:40:58Z</time>
      </trkpt>
      <trkpt lat="42.9324" lon="0.17291">
        <ele>1616.11</ele>
        <time>2014-11-02T09:41:09Z</time>
      </trkpt>
      <trkpt lat="42.93243" lon="0.17279">
        <ele>1616.11</ele>
        <time>2014-11-02T09:41:19Z</time>
      </trkpt>
      <trkpt lat="42.93245" lon="0.17266">
        <ele>1616.11</ele>
        <time>2014-11-02T09:41:29Z</time>
      </trkpt>
      <trkpt lat="42.93246" lon="0.17254">
        <ele>1616.11</ele>
        <time>2014-11-02T09:41:38Z</time>
      </trkpt>
      <trkpt lat="42.93248" lon="0.17242">
        <ele>1617.07</ele>
        <time>2014-11-02T09:41:48Z</time>
      </trkpt>
      <trkpt lat="42.93249" lon="0.17231">
        <ele>1618.04</ele>
        <time>2014-11-02T09:41:58Z</time>
      </trkpt>
      <trkpt lat="42.9325" lon="0.17219">
        <ele>1618.52</ele>
        <time>2014-11-02T09:42:08Z</time>
      </trkpt>
      <trkpt lat="42.93251" lon="0.17205">
        <ele>1619.96</ele>
        <time>2014-11-02T09:42:18Z</time>
      </trkpt>
      <trkpt lat="42.93253" lon="0.17194">
        <ele>1621.88</ele>
        <time>2014-11-02T09:42:29Z</time>
      </trkpt>
      <trkpt lat="42.93257" lon="0.17183">
        <ele>1622.84</ele>
        <time>2014-11-02T09:42:43Z</time>
      </trkpt>
      <trkpt lat="42.93258" lon="0.17174">
        <ele>1624.28</ele>
        <time>2014-11-02T09:43:31Z</time>
      </trkpt>
      <trkpt lat="42.93262" lon="0.17161">
        <ele>1625.25</ele>
        <time>2014-11-02T09:43:41Z</time>
      </trkpt>
      <trkpt lat="42.93266" lon="0.17151">
        <ele>1626.21</ele>
        <time>2014-11-02T09:44:00Z</time>
      </trkpt>
      <trkpt lat="42.93266" lon="0.17136">
        <ele>1626.69</ele>
        <time>2014-11-02T09:44:10Z</time>
      </trkpt>
      <trkpt lat="42.93267" lon="0.17123">
        <ele>1628.13</ele>
        <time>2014-11-02T09:44:21Z</time>
      </trkpt>
      <trkpt lat="42.93269" lon="0.17111">
        <ele>1629.57</ele>
        <time>2014-11-02T09:44:34Z</time>
      </trkpt>
      <trkpt lat="42.93272" lon="0.17101">
        <ele>1631.01</ele>
        <time>2014-11-02T09:44:48Z</time>
      </trkpt>
      <trkpt lat="42.93275" lon="0.1709">
        <ele>1632.46</ele>
        <time>2014-11-02T09:45:01Z</time>
      </trkpt>
      <trkpt lat="42.93275" lon="0.17078">
        <ele>1634.38</ele>
        <time>2014-11-02T09:45:18Z</time>
      </trkpt>
      <trkpt lat="42.93276" lon="0.17067">
        <ele>1635.82</ele>
        <time>2014-11-02T09:45:38Z</time>
      </trkpt>
      <trkpt lat="42.93276" lon="0.17055">
        <ele>1638.22</ele>
        <time>2014-11-02T09:45:48Z</time>
      </trkpt>
      <trkpt lat="42.93275" lon="0.17043">
        <ele>1639.67</ele>
        <time>2014-11-02T09:45:59Z</time>
      </trkpt>
      <trkpt lat="42.93274" lon="0.1703">
        <ele>1640.63</ele>
        <time>2014-11-02T09:46:10Z</time>
      </trkpt>
      <trkpt lat="42.93273" lon="0.1702">
        <ele>1642.07</ele>
        <time>2014-11-02T09:46:24Z</time>
      </trkpt>
      <trkpt lat="42.93272" lon="0.17007">
        <ele>1643.51</ele>
        <time>2014-11-02T09:46:36Z</time>
      </trkpt>
      <trkpt lat="42.93273" lon="0.16995">
        <ele>1644.47</ele>
        <time>2014-11-02T09:46:48Z</time>
      </trkpt>
      <trkpt lat="42.93276" lon="0.16982">
        <ele>1645.43</ele>
        <time>2014-11-02T09:47:00Z</time>
      </trkpt>
      <trkpt lat="42.93278" lon="0.16969">
        <ele>1646.88</ele>
        <time>2014-11-02T09:47:15Z</time>
      </trkpt>
      <trkpt lat="42.93278" lon="0.16959">
        <ele>1648.8</ele>
        <time>2014-11-02T09:47:28Z</time>
      </trkpt>
      <trkpt lat="42.93275" lon="0.16951">
        <ele>1650.24</ele>
        <time>2014-11-02T09:47:39Z</time>
      </trkpt>
      <trkpt lat="42.93274" lon="0.16938">
        <ele>1652.64</ele>
        <time>2014-11-02T09:47:54Z</time>
      </trkpt>
      <trkpt lat="42.93269" lon="0.16931">
        <ele>1655.53</ele>
        <time>2014-11-02T09:48:09Z</time>
      </trkpt>
      <trkpt lat="42.93266" lon="0.16926">
        <ele>1654.57</ele>
        <time>2014-11-02T09:53:40Z</time>
      </trkpt>
      <trkpt lat="42.93272" lon="0.16921">
        <ele>1656.49</ele>
        <time>2014-11-02T09:57:08Z</time>
      </trkpt>
      <trkpt lat="42.93277" lon="0.16909">
        <ele>1659.37</ele>
        <time>2014-11-02T09:57:18Z</time>
      </trkpt>
      <trkpt lat="42.93283" lon="0.16901">
        <ele>1661.3</ele>
        <time>2014-11-02T09:57:30Z</time>
      </trkpt>
      <trkpt lat="42.93285" lon="0.1689">
        <ele>1664.66</ele>
        <time>2014-11-02T09:57:42Z</time>
      </trkpt>
      <trkpt lat="42.9329" lon="0.16879">
        <ele>1664.18</ele>
        <time>2014-11-02T09:58:11Z</time>
      </trkpt>
      <trkpt lat="42.93291" lon="0.16868">
        <ele>1664.18</ele>
        <time>2014-11-02T09:58:20Z</time>
      </trkpt>
      <trkpt lat="42.93295" lon="0.16857">
        <ele>1665.14</ele>
        <time>2014-11-02T09:58:28Z</time>
      </trkpt>
      <trkpt lat="42.933" lon="0.16844">
        <ele>1666.1</ele>
        <time>2014-11-02T09:58:38Z</time>
      </trkpt>
      <trkpt lat="42.93304" lon="0.16834">
        <ele>1667.06</ele>
        <time>2014-11-02T09:58:48Z</time>
      </trkpt>
      <trkpt lat="42.9331" lon="0.16823">
        <ele>1667.54</ele>
        <time>2014-11-02T09:58:58Z</time>
      </trkpt>
      <trkpt lat="42.93313" lon="0.16809">
        <ele>1668.02</ele>
        <time>2014-11-02T09:59:08Z</time>
      </trkpt>
      <trkpt lat="42.93321" lon="0.16804">
        <ele>1668.02</ele>
        <time>2014-11-02T09:59:18Z</time>
      </trkpt>
      <trkpt lat="42.93329" lon="0.16798">
        <ele>1669.95</ele>
        <time>2014-11-02T09:59:31Z</time>
      </trkpt>
      <trkpt lat="42.93335" lon="0.16789">
        <ele>1670.91</ele>
        <time>2014-11-02T09:59:42Z</time>
      </trkpt>
      <trkpt lat="42.93341" lon="0.16782">
        <ele>1671.39</ele>
        <time>2014-11-02T09:59:58Z</time>
      </trkpt>
      <trkpt lat="42.93345" lon="0.16777">
        <ele>1672.35</ele>
        <time>2014-11-02T10:00:11Z</time>
      </trkpt>
      <trkpt lat="42.93349" lon="0.16765">
        <ele>1674.27</ele>
        <time>2014-11-02T10:00:24Z</time>
      </trkpt>
      <trkpt lat="42.93353" lon="0.16755">
        <ele>1675.23</ele>
        <time>2014-11-02T10:00:37Z</time>
      </trkpt>
      <trkpt lat="42.93359" lon="0.16746">
        <ele>1677.64</ele>
        <time>2014-11-02T10:00:52Z</time>
      </trkpt>
      <trkpt lat="42.93362" lon="0.16736">
        <ele>1678.6</ele>
        <time>2014-11-02T10:01:03Z</time>
      </trkpt>
      <trkpt lat="42.93368" lon="0.16728">
        <ele>1679.08</ele>
        <time>2014-11-02T10:01:19Z</time>
      </trkpt>
      <trkpt lat="42.93371" lon="0.16716">
        <ele>1680.52</ele>
        <time>2014-11-02T10:01:33Z</time>
      </trkpt>
      <trkpt lat="42.93375" lon="0.16704">
        <ele>1681.48</ele>
        <time>2014-11-02T10:01:50Z</time>
      </trkpt>
      <trkpt lat="42.93378" lon="0.16695">
        <ele>1682.44</ele>
        <time>2014-11-02T10:02:15Z</time>
      </trkpt>
      <trkpt lat="42.93383" lon="0.16684">
        <ele>1684.37</ele>
        <time>2014-11-02T10:02:27Z</time>
      </trkpt>
      <trkpt lat="42.93386" lon="0.16672">
        <ele>1684.37</ele>
        <time>2014-11-02T10:02:50Z</time>
      </trkpt>
      <trkpt lat="42.93392" lon="0.16664">
        <ele>1686.77</ele>
        <time>2014-11-02T10:03:00Z</time>
      </trkpt>
      <trkpt lat="42.934" lon="0.16653">
        <ele>1686.77</ele>
        <time>2014-11-02T10:03:10Z</time>
      </trkpt>
      <trkpt lat="42.93405" lon="0.16643">
        <ele>1688.21</ele>
        <time>2014-11-02T10:03:22Z</time>
      </trkpt>
      <trkpt lat="42.93409" lon="0.16634">
        <ele>1689.17</ele>
        <time>2014-11-02T10:03:32Z</time>
      </trkpt>
      <trkpt lat="42.93414" lon="0.16624">
        <ele>1691.58</ele>
        <time>2014-11-02T10:03:50Z</time>
      </trkpt>
      <trkpt lat="42.93421" lon="0.16617">
        <ele>1692.54</ele>
        <time>2014-11-02T10:04:04Z</time>
      </trkpt>
      <trkpt lat="42.93426" lon="0.16608">
        <ele>1692.54</ele>
        <time>2014-11-02T10:04:15Z</time>
      </trkpt>
      <trkpt lat="42.93433" lon="0.16601">
        <ele>1693.02</ele>
        <time>2014-11-02T10:04:25Z</time>
      </trkpt>
      <trkpt lat="42.93441" lon="0.16594">
        <ele>1695.42</ele>
        <time>2014-11-02T10:04:39Z</time>
      </trkpt>
      <trkpt lat="42.93446" lon="0.16585">
        <ele>1696.38</ele>
        <time>2014-11-02T10:04:53Z</time>
      </trkpt>
      <trkpt lat="42.93452" lon="0.16576">
        <ele>1697.83</ele>
        <time>2014-11-02T10:05:09Z</time>
      </trkpt>
      <trkpt lat="42.93453" lon="0.16565">
        <ele>1699.27</ele>
        <time>2014-11-02T10:05:23Z</time>
      </trkpt>
      <trkpt lat="42.93456" lon="0.16552">
        <ele>1700.71</ele>
        <time>2014-11-02T10:05:35Z</time>
      </trkpt>
      <trkpt lat="42.93461" lon="0.16541">
        <ele>1699.75</ele>
        <time>2014-11-02T10:05:44Z</time>
      </trkpt>
      <trkpt lat="42.93465" lon="0.16534">
        <ele>1701.67</ele>
        <time>2014-11-02T10:05:54Z</time>
      </trkpt>
      <trkpt lat="42.93474" lon="0.16528">
        <ele>1704.07</ele>
        <time>2014-11-02T10:06:06Z</time>
      </trkpt>
      <trkpt lat="42.93481" lon="0.1652">
        <ele>1705.04</ele>
        <time>2014-11-02T10:06:16Z</time>
      </trkpt>
      <trkpt lat="42.93489" lon="0.16513">
        <ele>1705.52</ele>
        <time>2014-11-02T10:06:28Z</time>
      </trkpt>
      <trkpt lat="42.93497" lon="0.16504">
        <ele>1706.96</ele>
        <time>2014-11-02T10:06:38Z</time>
      </trkpt>
      <trkpt lat="42.93502" lon="0.16497">
        <ele>1707.92</ele>
        <time>2014-11-02T10:06:52Z</time>
      </trkpt>
      <trkpt lat="42.9351" lon="0.1649">
        <ele>1706.48</ele>
        <time>2014-11-02T10:07:04Z</time>
      </trkpt>
      <trkpt lat="42.93518" lon="0.16481">
        <ele>1706.96</ele>
        <time>2014-11-02T10:07:14Z</time>
      </trkpt>
      <trkpt lat="42.93524" lon="0.16472">
        <ele>1707.44</ele>
        <time>2014-11-02T10:07:26Z</time>
      </trkpt>
      <trkpt lat="42.93531" lon="0.16464">
        <ele>1710.32</ele>
        <time>2014-11-02T10:07:41Z</time>
      </trkpt>
      <trkpt lat="42.93536" lon="0.16454">
        <ele>1711.28</ele>
        <time>2014-11-02T10:07:53Z</time>
      </trkpt>
      <trkpt lat="42.93542" lon="0.16444">
        <ele>1712.73</ele>
        <time>2014-11-02T10:08:08Z</time>
      </trkpt>
      <trkpt lat="42.93546" lon="0.16434">
        <ele>1712.73</ele>
        <time>2014-11-02T10:08:19Z</time>
      </trkpt>
      <trkpt lat="42.93553" lon="0.16427">
        <ele>1713.69</ele>
        <time>2014-11-02T10:08:33Z</time>
      </trkpt>
      <trkpt lat="42.93549" lon="0.16419">
        <ele>1716.57</ele>
        <time>2014-11-02T10:08:54Z</time>
      </trkpt>
      <trkpt lat="42.9355" lon="0.1641">
        <ele>1720.42</ele>
        <time>2014-11-02T10:09:14Z</time>
      </trkpt>
      <trkpt lat="42.93555" lon="0.16399">
        <ele>1722.34</ele>
        <time>2014-11-02T10:09:37Z</time>
      </trkpt>
      <trkpt lat="42.9356" lon="0.16391">
        <ele>1723.3</ele>
        <time>2014-11-02T10:10:02Z</time>
      </trkpt>
      <trkpt lat="42.93563" lon="0.16381">
        <ele>1726.18</ele>
        <time>2014-11-02T10:10:16Z</time>
      </trkpt>
      <trkpt lat="42.93562" lon="0.16372">
        <ele>1726.18</ele>
        <time>2014-11-02T10:10:35Z</time>
      </trkpt>
      <trkpt lat="42.93568" lon="0.16368">
        <ele>1729.07</ele>
        <time>2014-11-02T10:10:52Z</time>
      </trkpt>
      <trkpt lat="42.93577" lon="0.16361">
        <ele>1730.99</ele>
        <time>2014-11-02T10:11:04Z</time>
      </trkpt>
      <trkpt lat="42.93583" lon="0.16354">
        <ele>1733.39</ele>
        <time>2014-11-02T10:11:14Z</time>
      </trkpt>
      <trkpt lat="42.93589" lon="0.16344">
        <ele>1733.39</ele>
        <time>2014-11-02T10:11:25Z</time>
      </trkpt>
      <trkpt lat="42.93596" lon="0.16339">
        <ele>1735.8</ele>
        <time>2014-11-02T10:11:37Z</time>
      </trkpt>
      <trkpt lat="42.93602" lon="0.16334">
        <ele>1736.76</ele>
        <time>2014-11-02T10:11:48Z</time>
      </trkpt>
      <trkpt lat="42.9361" lon="0.16327">
        <ele>1737.72</ele>
        <time>2014-11-02T10:12:00Z</time>
      </trkpt>
      <trkpt lat="42.93619" lon="0.16325">
        <ele>1739.64</ele>
        <time>2014-11-02T10:12:12Z</time>
      </trkpt>
      <trkpt lat="42.93628" lon="0.16322">
        <ele>1744.45</ele>
        <time>2014-11-02T10:12:24Z</time>
      </trkpt>
      <trkpt lat="42.93636" lon="0.16314">
        <ele>1743.97</ele>
        <time>2014-11-02T10:12:35Z</time>
      </trkpt>
      <trkpt lat="42.93646" lon="0.1631">
        <ele>1743.01</ele>
        <time>2014-11-02T10:12:48Z</time>
      </trkpt>
      <trkpt lat="42.93655" lon="0.16308">
        <ele>1742.53</ele>
        <time>2014-11-02T10:12:59Z</time>
      </trkpt>
      <trkpt lat="42.93665" lon="0.16305">
        <ele>1743.49</ele>
        <time>2014-11-02T10:13:11Z</time>
      </trkpt>
      <trkpt lat="42.93674" lon="0.16303">
        <ele>1744.93</ele>
        <time>2014-11-02T10:13:24Z</time>
      </trkpt>
      <trkpt lat="42.93681" lon="0.16309">
        <ele>1744.45</ele>
        <time>2014-11-02T10:14:07Z</time>
      </trkpt>
      <trkpt lat="42.93681" lon="0.16308">
        <ele>1745.41</ele>
        <time>2014-11-02T10:21:05Z</time>
      </trkpt>
      <trkpt lat="42.93684" lon="0.16297">
        <ele>1746.85</ele>
        <time>2014-11-02T10:21:52Z</time>
      </trkpt>
      <trkpt lat="42.9369" lon="0.16291">
        <ele>1746.85</ele>
        <time>2014-11-02T10:22:03Z</time>
      </trkpt>
      <trkpt lat="42.93698" lon="0.16285">
        <ele>1748.29</ele>
        <time>2014-11-02T10:22:13Z</time>
      </trkpt>
      <trkpt lat="42.93707" lon="0.16283">
        <ele>1751.66</ele>
        <time>2014-11-02T10:22:26Z</time>
      </trkpt>
      <trkpt lat="42.93714" lon="0.16276">
        <ele>1751.66</ele>
        <time>2014-11-02T10:22:40Z</time>
      </trkpt>
      <trkpt lat="42.93722" lon="0.16271">
        <ele>1754.54</ele>
        <time>2014-11-02T10:22:56Z</time>
      </trkpt>
      <trkpt lat="42.9373" lon="0.16268">
        <ele>1755.02</ele>
        <time>2014-11-02T10:23:13Z</time>
      </trkpt>
      <trkpt lat="42.93739" lon="0.16263">
        <ele>1759.35</ele>
        <time>2014-11-02T10:23:28Z</time>
      </trkpt>
      <trkpt lat="42.93746" lon="0.1626">
        <ele>1760.31</ele>
        <time>2014-11-02T10:23:43Z</time>
      </trkpt>
      <trkpt lat="42.93755" lon="0.16257">
        <ele>1761.75</ele>
        <time>2014-11-02T10:23:58Z</time>
      </trkpt>
      <trkpt lat="42.93763" lon="0.16252">
        <ele>1763.68</ele>
        <time>2014-11-02T10:24:10Z</time>
      </trkpt>
      <trkpt lat="42.9377" lon="0.16245">
        <ele>1766.08</ele>
        <time>2014-11-02T10:24:27Z</time>
      </trkpt>
      <trkpt lat="42.93777" lon="0.16247">
        <ele>1769.92</ele>
        <time>2014-11-02T10:24:51Z</time>
      </trkpt>
      <trkpt lat="42.93786" lon="0.16244">
        <ele>1772.81</ele>
        <time>2014-11-02T10:25:07Z</time>
      </trkpt>
      <trkpt lat="42.93794" lon="0.16239">
        <ele>1775.69</ele>
        <time>2014-11-02T10:25:19Z</time>
      </trkpt>
      <trkpt lat="42.938" lon="0.16231">
        <ele>1777.13</ele>
        <time>2014-11-02T10:25:32Z</time>
      </trkpt>
      <trkpt lat="42.93803" lon="0.16222">
        <ele>1780.02</ele>
        <time>2014-11-02T10:25:43Z</time>
      </trkpt>
      <trkpt lat="42.9381" lon="0.16216">
        <ele>1780.5</ele>
        <time>2014-11-02T10:25:56Z</time>
      </trkpt>
      <trkpt lat="42.93818" lon="0.16213">
        <ele>1779.06</ele>
        <time>2014-11-02T10:26:08Z</time>
      </trkpt>
      <trkpt lat="42.93827" lon="0.16215">
        <ele>1780.5</ele>
        <time>2014-11-02T10:26:24Z</time>
      </trkpt>
      <trkpt lat="42.93836" lon="0.16218">
        <ele>1781.94</ele>
        <time>2014-11-02T10:26:39Z</time>
      </trkpt>
      <trkpt lat="42.93845" lon="0.1622">
        <ele>1783.86</ele>
        <time>2014-11-02T10:26:57Z</time>
      </trkpt>
      <trkpt lat="42.93853" lon="0.16222">
        <ele>1788.19</ele>
        <time>2014-11-02T10:27:22Z</time>
      </trkpt>
      <trkpt lat="42.93863" lon="0.16222">
        <ele>1789.63</ele>
        <time>2014-11-02T10:27:39Z</time>
      </trkpt>
      <trkpt lat="42.93872" lon="0.16221">
        <ele>1792.52</ele>
        <time>2014-11-02T10:27:54Z</time>
      </trkpt>
      <trkpt lat="42.93881" lon="0.16221">
        <ele>1793.48</ele>
        <time>2014-11-02T10:28:12Z</time>
      </trkpt>
      <trkpt lat="42.93889" lon="0.1622">
        <ele>1794.92</ele>
        <time>2014-11-02T10:28:28Z</time>
      </trkpt>
      <trkpt lat="42.93898" lon="0.16215">
        <ele>1795.88</ele>
        <time>2014-11-02T10:28:45Z</time>
      </trkpt>
      <trkpt lat="42.93906" lon="0.16212">
        <ele>1797.8</ele>
        <time>2014-11-02T10:29:02Z</time>
      </trkpt>
      <trkpt lat="42.93913" lon="0.16206">
        <ele>1800.21</ele>
        <time>2014-11-02T10:29:18Z</time>
      </trkpt>
      <trkpt lat="42.93923" lon="0.16205">
        <ele>1803.57</ele>
        <time>2014-11-02T10:30:03Z</time>
      </trkpt>
      <trkpt lat="42.93932" lon="0.16206">
        <ele>1805.49</ele>
        <time>2014-11-02T10:30:15Z</time>
      </trkpt>
      <trkpt lat="42.93941" lon="0.16204">
        <ele>1806.45</ele>
        <time>2014-11-02T10:30:28Z</time>
      </trkpt>
      <trkpt lat="42.9395" lon="0.16203">
        <ele>1808.38</ele>
        <time>2014-11-02T10:30:43Z</time>
      </trkpt>
      <trkpt lat="42.93959" lon="0.16202">
        <ele>1809.82</ele>
        <time>2014-11-02T10:30:57Z</time>
      </trkpt>
      <trkpt lat="42.93968" lon="0.16203">
        <ele>1811.74</ele>
        <time>2014-11-02T10:31:11Z</time>
      </trkpt>
      <trkpt lat="42.93977" lon="0.16205">
        <ele>1817.03</ele>
        <time>2014-11-02T10:31:33Z</time>
      </trkpt>
      <trkpt lat="42.93986" lon="0.16204">
        <ele>1818.95</ele>
        <time>2014-11-02T10:31:49Z</time>
      </trkpt>
      <trkpt lat="42.93995" lon="0.16203">
        <ele>1822.8</ele>
        <time>2014-11-02T10:32:08Z</time>
      </trkpt>
      <trkpt lat="42.94004" lon="0.16201">
        <ele>1824.72</ele>
        <time>2014-11-02T10:32:25Z</time>
      </trkpt>
      <trkpt lat="42.94013" lon="0.162">
        <ele>1828.08</ele>
        <time>2014-11-02T10:32:43Z</time>
      </trkpt>
      <trkpt lat="42.94022" lon="0.16196">
        <ele>1831.93</ele>
        <time>2014-11-02T10:33:04Z</time>
      </trkpt>
      <trkpt lat="42.94029" lon="0.1619">
        <ele>1834.33</ele>
        <time>2014-11-02T10:33:19Z</time>
      </trkpt>
      <trkpt lat="42.94037" lon="0.16189">
        <ele>1836.74</ele>
        <time>2014-11-02T10:33:33Z</time>
      </trkpt>
      <trkpt lat="42.94046" lon="0.1619">
        <ele>1838.66</ele>
        <time>2014-11-02T10:33:46Z</time>
      </trkpt>
      <trkpt lat="42.94056" lon="0.16192">
        <ele>1840.58</ele>
        <time>2014-11-02T10:34:04Z</time>
      </trkpt>
      <trkpt lat="42.94064" lon="0.16193">
        <ele>1842.5</ele>
        <time>2014-11-02T10:34:17Z</time>
      </trkpt>
      <trkpt lat="42.94072" lon="0.16199">
        <ele>1843.47</ele>
        <time>2014-11-02T10:34:29Z</time>
      </trkpt>
      <trkpt lat="42.9408" lon="0.16202">
        <ele>1843.95</ele>
        <time>2014-11-02T10:34:41Z</time>
      </trkpt>
      <trkpt lat="42.94088" lon="0.16205">
        <ele>1846.35</ele>
        <time>2014-11-02T10:34:55Z</time>
      </trkpt>
      <trkpt lat="42.94098" lon="0.16208">
        <ele>1847.79</ele>
        <time>2014-11-02T10:35:07Z</time>
      </trkpt>
      <trkpt lat="42.94106" lon="0.16211">
        <ele>1849.71</ele>
        <time>2014-11-02T10:35:19Z</time>
      </trkpt>
      <trkpt lat="42.94115" lon="0.16214">
        <ele>1851.64</ele>
        <time>2014-11-02T10:35:35Z</time>
      </trkpt>
      <trkpt lat="42.94124" lon="0.16218">
        <ele>1854.04</ele>
        <time>2014-11-02T10:35:50Z</time>
      </trkpt>
      <trkpt lat="42.94132" lon="0.16221">
        <ele>1855.96</ele>
        <time>2014-11-02T10:36:03Z</time>
      </trkpt>
      <trkpt lat="42.94141" lon="0.16225">
        <ele>1857.89</ele>
        <time>2014-11-02T10:36:17Z</time>
      </trkpt>
      <trkpt lat="42.9415" lon="0.16229">
        <ele>1860.77</ele>
        <time>2014-11-02T10:36:30Z</time>
      </trkpt>
      <trkpt lat="42.94159" lon="0.16234">
        <ele>1863.65</ele>
        <time>2014-11-02T10:36:45Z</time>
      </trkpt>
      <trkpt lat="42.94167" lon="0.1624">
        <ele>1864.13</ele>
        <time>2014-11-02T10:37:03Z</time>
      </trkpt>
      <trkpt lat="42.94175" lon="0.16244">
        <ele>1864.61</ele>
        <time>2014-11-02T10:37:21Z</time>
      </trkpt>
      <trkpt lat="42.94184" lon="0.16239">
        <ele>1867.5</ele>
        <time>2014-11-02T10:37:40Z</time>
      </trkpt>
      <trkpt lat="42.94193" lon="0.16242">
        <ele>1869.9</ele>
        <time>2014-11-02T10:38:04Z</time>
      </trkpt>
      <trkpt lat="42.94201" lon="0.1624">
        <ele>1874.23</ele>
        <time>2014-11-02T10:38:31Z</time>
      </trkpt>
      <trkpt lat="42.9421" lon="0.16235">
        <ele>1878.07</ele>
        <time>2014-11-02T10:38:51Z</time>
      </trkpt>
      <trkpt lat="42.94219" lon="0.16234">
        <ele>1880.48</ele>
        <time>2014-11-02T10:39:09Z</time>
      </trkpt>
      <trkpt lat="42.94229" lon="0.16228">
        <ele>1883.36</ele>
        <time>2014-11-02T10:39:27Z</time>
      </trkpt>
      <trkpt lat="42.94239" lon="0.16224">
        <ele>1882.4</ele>
        <time>2014-11-02T10:39:43Z</time>
      </trkpt>
      <trkpt lat="42.94247" lon="0.16219">
        <ele>1884.32</ele>
        <time>2014-11-02T10:40:00Z</time>
      </trkpt>
      <trkpt lat="42.94257" lon="0.16215">
        <ele>1887.21</ele>
        <time>2014-11-02T10:40:16Z</time>
      </trkpt>
      <trkpt lat="42.94265" lon="0.16212">
        <ele>1888.17</ele>
        <time>2014-11-02T10:40:30Z</time>
      </trkpt>
      <trkpt lat="42.94273" lon="0.1621">
        <ele>1890.57</ele>
        <time>2014-11-02T10:40:46Z</time>
      </trkpt>
      <trkpt lat="42.94283" lon="0.16214">
        <ele>1892.97</ele>
        <time>2014-11-02T10:41:03Z</time>
      </trkpt>
      <trkpt lat="42.94291" lon="0.1622">
        <ele>1895.86</ele>
        <time>2014-11-02T10:41:18Z</time>
      </trkpt>
      <trkpt lat="42.94299" lon="0.16228">
        <ele>1897.78</ele>
        <time>2014-11-02T10:41:32Z</time>
      </trkpt>
      <trkpt lat="42.94306" lon="0.16227">
        <ele>1899.7</ele>
        <time>2014-11-02T10:41:49Z</time>
      </trkpt>
      <trkpt lat="42.94313" lon="0.16229">
        <ele>1900.66</ele>
        <time>2014-11-02T10:42:26Z</time>
      </trkpt>
      <trkpt lat="42.94318" lon="0.1623">
        <ele>1900.18</ele>
        <time>2014-11-02T10:43:29Z</time>
      </trkpt>
      <trkpt lat="42.94319" lon="0.16231">
        <ele>1900.18</ele>
        <time>2014-11-02T10:44:59Z</time>
      </trkpt>
      <trkpt lat="42.94324" lon="0.16234">
        <ele>1899.7</ele>
        <time>2014-11-02T10:48:07Z</time>
      </trkpt>
      <trkpt lat="42.94334" lon="0.16236">
        <ele>1898.74</ele>
        <time>2014-11-02T10:48:25Z</time>
      </trkpt>
      <trkpt lat="42.94341" lon="0.16225">
        <ele>1898.74</ele>
        <time>2014-11-02T10:48:40Z</time>
      </trkpt>
      <trkpt lat="42.94343" lon="0.16213">
        <ele>1902.11</ele>
        <time>2014-11-02T10:48:54Z</time>
      </trkpt>
      <trkpt lat="42.94348" lon="0.162">
        <ele>1903.07</ele>
        <time>2014-11-02T10:49:05Z</time>
      </trkpt>
      <trkpt lat="42.94353" lon="0.16188">
        <ele>1903.55</ele>
        <time>2014-11-02T10:49:16Z</time>
      </trkpt>
      <trkpt lat="42.94359" lon="0.16179">
        <ele>1904.51</ele>
        <time>2014-11-02T10:49:26Z</time>
      </trkpt>
      <trkpt lat="42.94366" lon="0.16169">
        <ele>1905.95</ele>
        <time>2014-11-02T10:49:37Z</time>
      </trkpt>
      <trkpt lat="42.94372" lon="0.16161">
        <ele>1906.43</ele>
        <time>2014-11-02T10:49:48Z</time>
      </trkpt>
      <trkpt lat="42.94379" lon="0.16153">
        <ele>1907.39</ele>
        <time>2014-11-02T10:50:00Z</time>
      </trkpt>
      <trkpt lat="42.94387" lon="0.16146">
        <ele>1909.32</ele>
        <time>2014-11-02T10:50:14Z</time>
      </trkpt>
      <trkpt lat="42.94393" lon="0.16136">
        <ele>1910.76</ele>
        <time>2014-11-02T10:50:28Z</time>
      </trkpt>
      <trkpt lat="42.94397" lon="0.16125">
        <ele>1911.72</ele>
        <time>2014-11-02T10:50:40Z</time>
      </trkpt>
      <trkpt lat="42.944" lon="0.16113">
        <ele>1912.68</ele>
        <time>2014-11-02T10:50:53Z</time>
      </trkpt>
      <trkpt lat="42.944" lon="0.16102">
        <ele>1914.6</ele>
        <time>2014-11-02T10:51:17Z</time>
      </trkpt>
      <trkpt lat="42.94394" lon="0.16102">
        <ele>1914.12</ele>
        <time>2014-11-02T10:51:53Z</time>
      </trkpt>
      <trkpt lat="42.94387" lon="0.16092">
        <ele>1916.04</ele>
        <time>2014-11-02T10:52:04Z</time>
      </trkpt>
      <trkpt lat="42.94393" lon="0.16094">
        <ele>1914.6</ele>
        <time>2014-11-02T10:53:08Z</time>
      </trkpt>
      <trkpt lat="42.94402" lon="0.16096">
        <ele>1913.64</ele>
        <time>2014-11-02T10:53:20Z</time>
      </trkpt>
      <trkpt lat="42.94412" lon="0.16096">
        <ele>1914.12</ele>
        <time>2014-11-02T10:53:33Z</time>
      </trkpt>
      <trkpt lat="42.94421" lon="0.16095">
        <ele>1915.56</ele>
        <time>2014-11-02T10:53:47Z</time>
      </trkpt>
      <trkpt lat="42.9443" lon="0.16095">
        <ele>1916.53</ele>
        <time>2014-11-02T10:53:58Z</time>
      </trkpt>
      <trkpt lat="42.94439" lon="0.16095">
        <ele>1917.01</ele>
        <time>2014-11-02T10:54:08Z</time>
      </trkpt>
      <trkpt lat="42.94448" lon="0.16096">
        <ele>1919.41</ele>
        <time>2014-11-02T10:54:23Z</time>
      </trkpt>
      <trkpt lat="42.94452" lon="0.16105">
        <ele>1922.77</ele>
        <time>2014-11-02T10:54:41Z</time>
      </trkpt>
      <trkpt lat="42.9446" lon="0.16104">
        <ele>1925.66</ele>
        <time>2014-11-02T10:56:11Z</time>
      </trkpt>
      <trkpt lat="42.9447" lon="0.16102">
        <ele>1928.06</ele>
        <time>2014-11-02T10:56:27Z</time>
      </trkpt>
      <trkpt lat="42.94479" lon="0.16106">
        <ele>1931.91</ele>
        <time>2014-11-02T10:56:42Z</time>
      </trkpt>
      <trkpt lat="42.94488" lon="0.16103">
        <ele>1935.27</ele>
        <time>2014-11-02T10:57:00Z</time>
      </trkpt>
      <trkpt lat="42.94496" lon="0.16103">
        <ele>1938.64</ele>
        <time>2014-11-02T10:57:18Z</time>
      </trkpt>
      <trkpt lat="42.94504" lon="0.16106">
        <ele>1939.12</ele>
        <time>2014-11-02T10:57:40Z</time>
      </trkpt>
      <trkpt lat="42.94513" lon="0.16103">
        <ele>1941.04</ele>
        <time>2014-11-02T10:57:56Z</time>
      </trkpt>
      <trkpt lat="42.94522" lon="0.16098">
        <ele>1943.92</ele>
        <time>2014-11-02T10:58:14Z</time>
      </trkpt>
      <trkpt lat="42.94531" lon="0.16093">
        <ele>1948.25</ele>
        <time>2014-11-02T10:58:34Z</time>
      </trkpt>
      <trkpt lat="42.94539" lon="0.16088">
        <ele>1953.54</ele>
        <time>2014-11-02T10:59:32Z</time>
      </trkpt>
      <trkpt lat="42.94548" lon="0.16087">
        <ele>1955.94</ele>
        <time>2014-11-02T11:00:03Z</time>
      </trkpt>
      <trkpt lat="42.94559" lon="0.16086">
        <ele>1959.3</ele>
        <time>2014-11-02T11:00:21Z</time>
      </trkpt>
      <trkpt lat="42.94567" lon="0.16083">
        <ele>1963.63</ele>
        <time>2014-11-02T11:00:39Z</time>
      </trkpt>
      <trkpt lat="42.94576" lon="0.16084">
        <ele>1967.48</ele>
        <time>2014-11-02T11:00:59Z</time>
      </trkpt>
      <trkpt lat="42.94586" lon="0.16086">
        <ele>1969.88</ele>
        <time>2014-11-02T11:01:41Z</time>
      </trkpt>
      <trkpt lat="42.94593" lon="0.16091">
        <ele>1972.76</ele>
        <time>2014-11-02T11:01:59Z</time>
      </trkpt>
      <trkpt lat="42.94601" lon="0.16085">
        <ele>1975.65</ele>
        <time>2014-11-02T11:02:30Z</time>
      </trkpt>
      <trkpt lat="42.94607" lon="0.16075">
        <ele>1980.45</ele>
        <time>2014-11-02T11:02:47Z</time>
      </trkpt>
      <trkpt lat="42.9461" lon="0.16065">
        <ele>1982.86</ele>
        <time>2014-11-02T11:03:37Z</time>
      </trkpt>
      <trkpt lat="42.94611" lon="0.16051">
        <ele>1984.78</ele>
        <time>2014-11-02T11:03:53Z</time>
      </trkpt>
      <trkpt lat="42.94615" lon="0.1604">
        <ele>1993.43</ele>
        <time>2014-11-02T11:04:14Z</time>
      </trkpt>
      <trkpt lat="42.94617" lon="0.16026">
        <ele>1997.28</ele>
        <time>2014-11-02T11:04:45Z</time>
      </trkpt>
      <trkpt lat="42.9462" lon="0.16013">
        <ele>2001.12</ele>
        <time>2014-11-02T11:05:06Z</time>
      </trkpt>
      <trkpt lat="42.94621" lon="0.16005">
        <ele>2000.64</ele>
        <time>2014-11-02T11:05:38Z</time>
      </trkpt>
      <trkpt lat="42.94625" lon="0.16001">
        <ele>2001.12</ele>
        <time>2014-11-02T11:06:22Z</time>
      </trkpt>
      <trkpt lat="42.94634" lon="0.16002">
        <ele>1999.2</ele>
        <time>2014-11-02T11:06:31Z</time>
      </trkpt>
      <trkpt lat="42.94645" lon="0.16003">
        <ele>1999.68</ele>
        <time>2014-11-02T11:06:41Z</time>
      </trkpt>
      <trkpt lat="42.94653" lon="0.16004">
        <ele>2000.16</ele>
        <time>2014-11-02T11:06:51Z</time>
      </trkpt>
      <trkpt lat="42.94663" lon="0.16001">
        <ele>2002.08</ele>
        <time>2014-11-02T11:07:02Z</time>
      </trkpt>
      <trkpt lat="42.94672" lon="0.15997">
        <ele>2004.97</ele>
        <time>2014-11-02T11:07:15Z</time>
      </trkpt>
      <trkpt lat="42.94679" lon="0.15991">
        <ele>2008.33</ele>
        <time>2014-11-02T11:07:28Z</time>
      </trkpt>
      <trkpt lat="42.94686" lon="0.15982">
        <ele>2011.7</ele>
        <time>2014-11-02T11:07:42Z</time>
      </trkpt>
      <trkpt lat="42.94695" lon="0.15977">
        <ele>2011.22</ele>
        <time>2014-11-02T11:07:57Z</time>
      </trkpt>
      <trkpt lat="42.94701" lon="0.15968">
        <ele>2012.66</ele>
        <time>2014-11-02T11:08:10Z</time>
      </trkpt>
      <trkpt lat="42.94702" lon="0.15956">
        <ele>2014.1</ele>
        <time>2014-11-02T11:08:24Z</time>
      </trkpt>
      <trkpt lat="42.94706" lon="0.15944">
        <ele>2016.5</ele>
        <time>2014-11-02T11:08:39Z</time>
      </trkpt>
      <trkpt lat="42.9471" lon="0.15931">
        <ele>2019.87</ele>
        <time>2014-11-02T11:08:55Z</time>
      </trkpt>
      <trkpt lat="42.94717" lon="0.15924">
        <ele>2021.79</ele>
        <time>2014-11-02T11:09:08Z</time>
      </trkpt>
      <trkpt lat="42.94726" lon="0.15921">
        <ele>2023.23</ele>
        <time>2014-11-02T11:09:21Z</time>
      </trkpt>
      <trkpt lat="42.94734" lon="0.15919">
        <ele>2024.19</ele>
        <time>2014-11-02T11:09:32Z</time>
      </trkpt>
      <trkpt lat="42.94743" lon="0.15916">
        <ele>2026.12</ele>
        <time>2014-11-02T11:09:45Z</time>
      </trkpt>
      <trkpt lat="42.94746" lon="0.15904">
        <ele>2028.52</ele>
        <time>2014-11-02T11:09:59Z</time>
      </trkpt>
      <trkpt lat="42.94743" lon="0.15892">
        <ele>2025.64</ele>
        <time>2014-11-02T11:10:13Z</time>
      </trkpt>
      <trkpt lat="42.94744" lon="0.1588">
        <ele>2024.19</ele>
        <time>2014-11-02T11:10:25Z</time>
      </trkpt>
      <trkpt lat="42.94746" lon="0.15868">
        <ele>2023.23</ele>
        <time>2014-11-02T11:10:40Z</time>
      </trkpt>
      <trkpt lat="42.94739" lon="0.1586">
        <ele>2022.75</ele>
        <time>2014-11-02T11:10:56Z</time>
      </trkpt>
      <trkpt lat="42.94733" lon="0.15855">
        <ele>2022.75</ele>
        <time>2014-11-02T11:11:26Z</time>
      </trkpt>
      <trkpt lat="42.9473" lon="0.15855">
        <ele>2022.27</ele>
        <time>2014-11-02T11:19:27Z</time>
      </trkpt>
      <trkpt lat="42.94728" lon="0.15855">
        <ele>2022.75</ele>
        <time>2014-11-02T11:33:21Z</time>
      </trkpt>
      <trkpt lat="42.94728" lon="0.15857">
        <ele>2023.71</ele>
        <time>2014-11-02T11:46:03Z</time>
      </trkpt>
      <trkpt lat="42.94727" lon="0.15855">
        <ele>2027.56</ele>
        <time>2014-11-02T11:55:34Z</time>
      </trkpt>
      <trkpt lat="42.94731" lon="0.15857">
        <ele>2028.04</ele>
        <time>2014-11-02T11:57:17Z</time>
      </trkpt>
      <trkpt lat="42.94728" lon="0.15856">
        <ele>2028.52</ele>
        <time>2014-11-02T11:57:36Z</time>
      </trkpt>
      <trkpt lat="42.94731" lon="0.15855">
        <ele>2028.04</ele>
        <time>2014-11-02T11:58:12Z</time>
      </trkpt>
      <trkpt lat="42.94731" lon="0.1586">
        <ele>2028.04</ele>
        <time>2014-11-02T11:58:59Z</time>
      </trkpt>
      <trkpt lat="42.94733" lon="0.15873">
        <ele>2029</ele>
        <time>2014-11-02T11:59:21Z</time>
      </trkpt>
      <trkpt lat="42.94733" lon="0.15885">
        <ele>2029.48</ele>
        <time>2014-11-02T11:59:33Z</time>
      </trkpt>
      <trkpt lat="42.94731" lon="0.15895">
        <ele>2029.96</ele>
        <time>2014-11-02T11:59:48Z</time>
      </trkpt>
      <trkpt lat="42.94732" lon="0.15896">
        <ele>2030.44</ele>
        <time>2014-11-02T12:00:23Z</time>
      </trkpt>
      <trkpt lat="42.9473" lon="0.15905">
        <ele>2030.44</ele>
        <time>2014-11-02T12:00:39Z</time>
      </trkpt>
      <trkpt lat="42.94727" lon="0.15916">
        <ele>2027.56</ele>
        <time>2014-11-02T12:01:11Z</time>
      </trkpt>
      <trkpt lat="42.9472" lon="0.15924">
        <ele>2024.67</ele>
        <time>2014-11-02T12:01:20Z</time>
      </trkpt>
      <trkpt lat="42.94713" lon="0.15931">
        <ele>2023.23</ele>
        <time>2014-11-02T12:01:27Z</time>
      </trkpt>
      <trkpt lat="42.94707" lon="0.15942">
        <ele>2020.83</ele>
        <time>2014-11-02T12:01:34Z</time>
      </trkpt>
      <trkpt lat="42.94704" lon="0.15955">
        <ele>2018.43</ele>
        <time>2014-11-02T12:01:42Z</time>
      </trkpt>
      <trkpt lat="42.94699" lon="0.15966">
        <ele>2016.5</ele>
        <time>2014-11-02T12:01:51Z</time>
      </trkpt>
      <trkpt lat="42.94696" lon="0.15977">
        <ele>2014.58</ele>
        <time>2014-11-02T12:02:00Z</time>
      </trkpt>
      <trkpt lat="42.94688" lon="0.15984">
        <ele>2012.66</ele>
        <time>2014-11-02T12:02:10Z</time>
      </trkpt>
      <trkpt lat="42.9468" lon="0.1599">
        <ele>2011.7</ele>
        <time>2014-11-02T12:02:18Z</time>
      </trkpt>
      <trkpt lat="42.94673" lon="0.15999">
        <ele>2008.33</ele>
        <time>2014-11-02T12:02:26Z</time>
      </trkpt>
      <trkpt lat="42.94663" lon="0.16004">
        <ele>2006.89</ele>
        <time>2014-11-02T12:02:38Z</time>
      </trkpt>
      <trkpt lat="42.94654" lon="0.16003">
        <ele>2005.93</ele>
        <time>2014-11-02T12:02:46Z</time>
      </trkpt>
      <trkpt lat="42.94645" lon="0.16003">
        <ele>2004.97</ele>
        <time>2014-11-02T12:02:54Z</time>
      </trkpt>
      <trkpt lat="42.94635" lon="0.16001">
        <ele>2004.49</ele>
        <time>2014-11-02T12:03:04Z</time>
      </trkpt>
      <trkpt lat="42.94627" lon="0.16002">
        <ele>2005.93</ele>
        <time>2014-11-02T12:03:14Z</time>
      </trkpt>
      <trkpt lat="42.94624" lon="0.16011">
        <ele>2004.01</ele>
        <time>2014-11-02T12:03:34Z</time>
      </trkpt>
      <trkpt lat="42.94625" lon="0.16018">
        <ele>2000.64</ele>
        <time>2014-11-02T12:04:47Z</time>
      </trkpt>
      <trkpt lat="42.9462" lon="0.16026">
        <ele>2000.16</ele>
        <time>2014-11-02T12:07:16Z</time>
      </trkpt>
      <trkpt lat="42.94619" lon="0.16039">
        <ele>1994.39</ele>
        <time>2014-11-02T12:07:25Z</time>
      </trkpt>
      <trkpt lat="42.94615" lon="0.16051">
        <ele>1991.03</ele>
        <time>2014-11-02T12:07:36Z</time>
      </trkpt>
      <trkpt lat="42.94613" lon="0.16063">
        <ele>1986.7</ele>
        <time>2014-11-02T12:07:57Z</time>
      </trkpt>
      <trkpt lat="42.94611" lon="0.16075">
        <ele>1986.7</ele>
        <time>2014-11-02T12:08:08Z</time>
      </trkpt>
      <trkpt lat="42.94606" lon="0.16085">
        <ele>1983.82</ele>
        <time>2014-11-02T12:08:33Z</time>
      </trkpt>
      <trkpt lat="42.94599" lon="0.16094">
        <ele>1979.49</ele>
        <time>2014-11-02T12:08:46Z</time>
      </trkpt>
      <trkpt lat="42.9459" lon="0.16093">
        <ele>1976.61</ele>
        <time>2014-11-02T12:09:01Z</time>
      </trkpt>
      <trkpt lat="42.94582" lon="0.16089">
        <ele>1973.72</ele>
        <time>2014-11-02T12:09:15Z</time>
      </trkpt>
      <trkpt lat="42.94575" lon="0.16089">
        <ele>1970.36</ele>
        <time>2014-11-02T12:09:35Z</time>
      </trkpt>
      <trkpt lat="42.94566" lon="0.16089">
        <ele>1965.55</ele>
        <time>2014-11-02T12:09:58Z</time>
      </trkpt>
      <trkpt lat="42.9456" lon="0.16092">
        <ele>1961.71</ele>
        <time>2014-11-02T12:10:18Z</time>
      </trkpt>
      <trkpt lat="42.94552" lon="0.16096">
        <ele>1958.82</ele>
        <time>2014-11-02T12:10:31Z</time>
      </trkpt>
      <trkpt lat="42.94543" lon="0.16098">
        <ele>1955.46</ele>
        <time>2014-11-02T12:10:47Z</time>
      </trkpt>
      <trkpt lat="42.94534" lon="0.16099">
        <ele>1952.09</ele>
        <time>2014-11-02T12:11:02Z</time>
      </trkpt>
      <trkpt lat="42.94527" lon="0.16102">
        <ele>1949.69</ele>
        <time>2014-11-02T12:11:15Z</time>
      </trkpt>
      <trkpt lat="42.94517" lon="0.16106">
        <ele>1946.33</ele>
        <time>2014-11-02T12:11:31Z</time>
      </trkpt>
      <trkpt lat="42.94508" lon="0.16109">
        <ele>1944.4</ele>
        <time>2014-11-02T12:11:42Z</time>
      </trkpt>
      <trkpt lat="42.94499" lon="0.16105">
        <ele>1942</ele>
        <time>2014-11-02T12:11:57Z</time>
      </trkpt>
      <trkpt lat="42.94489" lon="0.16107">
        <ele>1939.6</ele>
        <time>2014-11-02T12:12:11Z</time>
      </trkpt>
      <trkpt lat="42.94482" lon="0.16107">
        <ele>1936.23</ele>
        <time>2014-11-02T12:12:22Z</time>
      </trkpt>
      <trkpt lat="42.94472" lon="0.16109">
        <ele>1934.31</ele>
        <time>2014-11-02T12:12:33Z</time>
      </trkpt>
      <trkpt lat="42.94464" lon="0.16114">
        <ele>1932.87</ele>
        <time>2014-11-02T12:12:42Z</time>
      </trkpt>
      <trkpt lat="42.94456" lon="0.16115">
        <ele>1930.46</ele>
        <time>2014-11-02T12:12:50Z</time>
      </trkpt>
      <trkpt lat="42.94447" lon="0.1612">
        <ele>1927.58</ele>
        <time>2014-11-02T12:13:05Z</time>
      </trkpt>
      <trkpt lat="42.94438" lon="0.16114">
        <ele>1923.74</ele>
        <time>2014-11-02T12:13:14Z</time>
      </trkpt>
      <trkpt lat="42.94432" lon="0.16102">
        <ele>1921.33</ele>
        <time>2014-11-02T12:13:25Z</time>
      </trkpt>
      <trkpt lat="42.94424" lon="0.16094">
        <ele>1920.85</ele>
        <time>2014-11-02T12:13:32Z</time>
      </trkpt>
      <trkpt lat="42.94417" lon="0.16085">
        <ele>1921.33</ele>
        <time>2014-11-02T12:13:40Z</time>
      </trkpt>
      <trkpt lat="42.94409" lon="0.16079">
        <ele>1921.33</ele>
        <time>2014-11-02T12:13:47Z</time>
      </trkpt>
      <trkpt lat="42.944" lon="0.16073">
        <ele>1920.85</ele>
        <time>2014-11-02T12:13:54Z</time>
      </trkpt>
      <trkpt lat="42.94392" lon="0.16065">
        <ele>1920.37</ele>
        <time>2014-11-02T12:14:02Z</time>
      </trkpt>
      <trkpt lat="42.94386" lon="0.16056">
        <ele>1921.81</ele>
        <time>2014-11-02T12:14:13Z</time>
      </trkpt>
      <trkpt lat="42.94378" lon="0.16049">
        <ele>1919.41</ele>
        <time>2014-11-02T12:14:20Z</time>
      </trkpt>
      <trkpt lat="42.94374" lon="0.16041">
        <ele>1919.89</ele>
        <time>2014-11-02T12:14:35Z</time>
      </trkpt>
      <trkpt lat="42.94375" lon="0.16051">
        <ele>1919.41</ele>
        <time>2014-11-02T12:14:54Z</time>
      </trkpt>
      <trkpt lat="42.94378" lon="0.16063">
        <ele>1920.37</ele>
        <time>2014-11-02T12:15:05Z</time>
      </trkpt>
      <trkpt lat="42.94382" lon="0.16076">
        <ele>1920.37</ele>
        <time>2014-11-02T12:15:15Z</time>
      </trkpt>
      <trkpt lat="42.94387" lon="0.16088">
        <ele>1920.85</ele>
        <time>2014-11-02T12:15:24Z</time>
      </trkpt>
      <trkpt lat="42.9439" lon="0.161">
        <ele>1920.85</ele>
        <time>2014-11-02T12:15:32Z</time>
      </trkpt>
      <trkpt lat="42.94392" lon="0.16113">
        <ele>1918.93</ele>
        <time>2014-11-02T12:15:39Z</time>
      </trkpt>
      <trkpt lat="42.94393" lon="0.16125">
        <ele>1917.97</ele>
        <time>2014-11-02T12:15:47Z</time>
      </trkpt>
      <trkpt lat="42.94393" lon="0.16139">
        <ele>1915.56</ele>
        <time>2014-11-02T12:15:58Z</time>
      </trkpt>
      <trkpt lat="42.94388" lon="0.16148">
        <ele>1914.12</ele>
        <time>2014-11-02T12:16:10Z</time>
      </trkpt>
      <trkpt lat="42.9438" lon="0.16156">
        <ele>1912.68</ele>
        <time>2014-11-02T12:16:21Z</time>
      </trkpt>
      <trkpt lat="42.94374" lon="0.16164">
        <ele>1910.76</ele>
        <time>2014-11-02T12:16:33Z</time>
      </trkpt>
      <trkpt lat="42.94367" lon="0.16173">
        <ele>1910.76</ele>
        <time>2014-11-02T12:16:41Z</time>
      </trkpt>
      <trkpt lat="42.9436" lon="0.16182">
        <ele>1909.32</ele>
        <time>2014-11-02T12:16:49Z</time>
      </trkpt>
      <trkpt lat="42.94355" lon="0.16193">
        <ele>1908.35</ele>
        <time>2014-11-02T12:16:57Z</time>
      </trkpt>
      <trkpt lat="42.9435" lon="0.16204">
        <ele>1907.87</ele>
        <time>2014-11-02T12:17:06Z</time>
      </trkpt>
      <trkpt lat="42.94347" lon="0.16214">
        <ele>1906.91</ele>
        <time>2014-11-02T12:17:15Z</time>
      </trkpt>
      <trkpt lat="42.94341" lon="0.16226">
        <ele>1905.47</ele>
        <time>2014-11-02T12:17:27Z</time>
      </trkpt>
      <trkpt lat="42.94334" lon="0.16236">
        <ele>1904.51</ele>
        <time>2014-11-02T12:17:41Z</time>
      </trkpt>
      <trkpt lat="42.94326" lon="0.16231">
        <ele>1904.99</ele>
        <time>2014-11-02T12:17:52Z</time>
      </trkpt>
      <trkpt lat="42.94317" lon="0.16226">
        <ele>1906.43</ele>
        <time>2014-11-02T12:18:03Z</time>
      </trkpt>
      <trkpt lat="42.9431" lon="0.16227">
        <ele>1907.87</ele>
        <time>2014-11-02T12:18:14Z</time>
      </trkpt>
      <trkpt lat="42.94301" lon="0.16231">
        <ele>1904.99</ele>
        <time>2014-11-02T12:18:26Z</time>
      </trkpt>
      <trkpt lat="42.94293" lon="0.16226">
        <ele>1903.55</ele>
        <time>2014-11-02T12:18:39Z</time>
      </trkpt>
      <trkpt lat="42.94286" lon="0.16217">
        <ele>1902.59</ele>
        <time>2014-11-02T12:18:49Z</time>
      </trkpt>
      <trkpt lat="42.94278" lon="0.16214">
        <ele>1901.14</ele>
        <time>2014-11-02T12:19:01Z</time>
      </trkpt>
      <trkpt lat="42.94269" lon="0.16213">
        <ele>1900.18</ele>
        <time>2014-11-02T12:19:13Z</time>
      </trkpt>
      <trkpt lat="42.9426" lon="0.16216">
        <ele>1897.3</ele>
        <time>2014-11-02T12:19:25Z</time>
      </trkpt>
      <trkpt lat="42.94252" lon="0.16218">
        <ele>1895.38</ele>
        <time>2014-11-02T12:19:36Z</time>
      </trkpt>
      <trkpt lat="42.94244" lon="0.16222">
        <ele>1893.45</ele>
        <time>2014-11-02T12:19:48Z</time>
      </trkpt>
      <trkpt lat="42.94236" lon="0.16225">
        <ele>1891.53</ele>
        <time>2014-11-02T12:20:05Z</time>
      </trkpt>
      <trkpt lat="42.94228" lon="0.16231">
        <ele>1889.61</ele>
        <time>2014-11-02T12:20:16Z</time>
      </trkpt>
      <trkpt lat="42.94218" lon="0.16234">
        <ele>1887.21</ele>
        <time>2014-11-02T12:20:29Z</time>
      </trkpt>
      <trkpt lat="42.9421" lon="0.16239">
        <ele>1883.84</ele>
        <time>2014-11-02T12:20:41Z</time>
      </trkpt>
      <trkpt lat="42.94202" lon="0.16242">
        <ele>1880.48</ele>
        <time>2014-11-02T12:20:58Z</time>
      </trkpt>
      <trkpt lat="42.94193" lon="0.16243">
        <ele>1876.63</ele>
        <time>2014-11-02T12:21:10Z</time>
      </trkpt>
      <trkpt lat="42.94184" lon="0.16242">
        <ele>1873.27</ele>
        <time>2014-11-02T12:21:22Z</time>
      </trkpt>
      <trkpt lat="42.94176" lon="0.16243">
        <ele>1870.38</ele>
        <time>2014-11-02T12:21:34Z</time>
      </trkpt>
      <trkpt lat="42.94167" lon="0.16242">
        <ele>1867.98</ele>
        <time>2014-11-02T12:21:46Z</time>
      </trkpt>
      <trkpt lat="42.94159" lon="0.16237">
        <ele>1866.06</ele>
        <time>2014-11-02T12:21:57Z</time>
      </trkpt>
      <trkpt lat="42.94151" lon="0.16232">
        <ele>1863.17</ele>
        <time>2014-11-02T12:22:07Z</time>
      </trkpt>
      <trkpt lat="42.94143" lon="0.16228">
        <ele>1862.21</ele>
        <time>2014-11-02T12:22:17Z</time>
      </trkpt>
      <trkpt lat="42.94134" lon="0.16225">
        <ele>1860.29</ele>
        <time>2014-11-02T12:22:26Z</time>
      </trkpt>
      <trkpt lat="42.94125" lon="0.16221">
        <ele>1858.85</ele>
        <time>2014-11-02T12:22:37Z</time>
      </trkpt>
      <trkpt lat="42.94117" lon="0.16219">
        <ele>1856.44</ele>
        <time>2014-11-02T12:22:48Z</time>
      </trkpt>
      <trkpt lat="42.94109" lon="0.16214">
        <ele>1856.44</ele>
        <time>2014-11-02T12:22:59Z</time>
      </trkpt>
      <trkpt lat="42.94099" lon="0.1621">
        <ele>1853.56</ele>
        <time>2014-11-02T12:23:10Z</time>
      </trkpt>
      <trkpt lat="42.94089" lon="0.16209">
        <ele>1852.12</ele>
        <time>2014-11-02T12:23:20Z</time>
      </trkpt>
      <trkpt lat="42.9408" lon="0.16205">
        <ele>1851.16</ele>
        <time>2014-11-02T12:23:30Z</time>
      </trkpt>
      <trkpt lat="42.94072" lon="0.16199">
        <ele>1849.23</ele>
        <time>2014-11-02T12:23:40Z</time>
      </trkpt>
      <trkpt lat="42.94062" lon="0.16196">
        <ele>1847.79</ele>
        <time>2014-11-02T12:23:51Z</time>
      </trkpt>
      <trkpt lat="42.94053" lon="0.16194">
        <ele>1845.87</ele>
        <time>2014-11-02T12:24:02Z</time>
      </trkpt>
      <trkpt lat="42.94045" lon="0.16191">
        <ele>1842.98</ele>
        <time>2014-11-02T12:24:17Z</time>
      </trkpt>
      <trkpt lat="42.94038" lon="0.16191">
        <ele>1841.54</ele>
        <time>2014-11-02T12:26:23Z</time>
      </trkpt>
      <trkpt lat="42.9403" lon="0.16192">
        <ele>1838.66</ele>
        <time>2014-11-02T12:26:36Z</time>
      </trkpt>
      <trkpt lat="42.94022" lon="0.16197">
        <ele>1837.7</ele>
        <time>2014-11-02T12:27:38Z</time>
      </trkpt>
      <trkpt lat="42.94015" lon="0.16199">
        <ele>1835.29</ele>
        <time>2014-11-02T12:29:41Z</time>
      </trkpt>
      <trkpt lat="42.94008" lon="0.16202">
        <ele>1832.41</ele>
        <time>2014-11-02T12:29:54Z</time>
      </trkpt>
      <trkpt lat="42.94" lon="0.16208">
        <ele>1828.56</ele>
        <time>2014-11-02T12:30:09Z</time>
      </trkpt>
      <trkpt lat="42.93991" lon="0.1621">
        <ele>1826.64</ele>
        <time>2014-11-02T12:30:22Z</time>
      </trkpt>
      <trkpt lat="42.93982" lon="0.16211">
        <ele>1823.76</ele>
        <time>2014-11-02T12:30:33Z</time>
      </trkpt>
      <trkpt lat="42.93975" lon="0.16212">
        <ele>1821.35</ele>
        <time>2014-11-02T12:31:20Z</time>
      </trkpt>
      <trkpt lat="42.93967" lon="0.1621">
        <ele>1817.03</ele>
        <time>2014-11-02T12:31:53Z</time>
      </trkpt>
      <trkpt lat="42.93957" lon="0.16209">
        <ele>1815.59</ele>
        <time>2014-11-02T12:32:04Z</time>
      </trkpt>
      <trkpt lat="42.93948" lon="0.16212">
        <ele>1812.7</ele>
        <time>2014-11-02T12:32:14Z</time>
      </trkpt>
      <trkpt lat="42.93939" lon="0.16211">
        <ele>1810.78</ele>
        <time>2014-11-02T12:32:26Z</time>
      </trkpt>
      <trkpt lat="42.9393" lon="0.16212">
        <ele>1809.34</ele>
        <time>2014-11-02T12:32:38Z</time>
      </trkpt>
      <trkpt lat="42.93922" lon="0.16213">
        <ele>1806.45</ele>
        <time>2014-11-02T12:32:58Z</time>
      </trkpt>
      <trkpt lat="42.93912" lon="0.16212">
        <ele>1805.01</ele>
        <time>2014-11-02T12:33:08Z</time>
      </trkpt>
      <trkpt lat="42.93904" lon="0.16218">
        <ele>1804.05</ele>
        <time>2014-11-02T12:33:17Z</time>
      </trkpt>
      <trkpt lat="42.93895" lon="0.16222">
        <ele>1801.65</ele>
        <time>2014-11-02T12:33:28Z</time>
      </trkpt>
      <trkpt lat="42.93886" lon="0.16222">
        <ele>1800.21</ele>
        <time>2014-11-02T12:33:39Z</time>
      </trkpt>
      <trkpt lat="42.93877" lon="0.16223">
        <ele>1799.24</ele>
        <time>2014-11-02T12:33:48Z</time>
      </trkpt>
      <trkpt lat="42.93871" lon="0.16221">
        <ele>1798.28</ele>
        <time>2014-11-02T12:35:16Z</time>
      </trkpt>
      <trkpt lat="42.93861" lon="0.16224">
        <ele>1795.88</ele>
        <time>2014-11-02T12:35:26Z</time>
      </trkpt>
      <trkpt lat="42.93852" lon="0.16226">
        <ele>1792.52</ele>
        <time>2014-11-02T12:35:37Z</time>
      </trkpt>
      <trkpt lat="42.93842" lon="0.16226">
        <ele>1788.67</ele>
        <time>2014-11-02T12:35:56Z</time>
      </trkpt>
      <trkpt lat="42.93835" lon="0.16225">
        <ele>1784.34</ele>
        <time>2014-11-02T12:36:10Z</time>
      </trkpt>
      <trkpt lat="42.93829" lon="0.1623">
        <ele>1784.82</ele>
        <time>2014-11-02T12:37:02Z</time>
      </trkpt>
      <trkpt lat="42.9382" lon="0.16235">
        <ele>1782.9</ele>
        <time>2014-11-02T12:37:11Z</time>
      </trkpt>
      <trkpt lat="42.93812" lon="0.16239">
        <ele>1781.46</ele>
        <time>2014-11-02T12:37:23Z</time>
      </trkpt>
      <trkpt lat="42.93807" lon="0.16239">
        <ele>1781.46</ele>
        <time>2014-11-02T12:42:12Z</time>
      </trkpt>
      <trkpt lat="42.93798" lon="0.1624">
        <ele>1779.06</ele>
        <time>2014-11-02T12:42:42Z</time>
      </trkpt>
      <trkpt lat="42.93789" lon="0.16243">
        <ele>1776.17</ele>
        <time>2014-11-02T12:42:50Z</time>
      </trkpt>
      <trkpt lat="42.93781" lon="0.16245">
        <ele>1773.77</ele>
        <time>2014-11-02T12:43:35Z</time>
      </trkpt>
      <trkpt lat="42.93774" lon="0.16248">
        <ele>1772.33</ele>
        <time>2014-11-02T12:46:11Z</time>
      </trkpt>
      <trkpt lat="42.93764" lon="0.16253">
        <ele>1769.92</ele>
        <time>2014-11-02T12:46:20Z</time>
      </trkpt>
      <trkpt lat="42.93758" lon="0.1626">
        <ele>1767.52</ele>
        <time>2014-11-02T12:46:30Z</time>
      </trkpt>
      <trkpt lat="42.93751" lon="0.16265">
        <ele>1765.6</ele>
        <time>2014-11-02T12:46:58Z</time>
      </trkpt>
      <trkpt lat="42.93743" lon="0.16266">
        <ele>1762.71</ele>
        <time>2014-11-02T12:47:15Z</time>
      </trkpt>
      <trkpt lat="42.93734" lon="0.16269">
        <ele>1761.75</ele>
        <time>2014-11-02T12:47:33Z</time>
      </trkpt>
      <trkpt lat="42.93725" lon="0.16272">
        <ele>1759.35</ele>
        <time>2014-11-02T12:47:42Z</time>
      </trkpt>
      <trkpt lat="42.93718" lon="0.16278">
        <ele>1756.95</ele>
        <time>2014-11-02T12:47:49Z</time>
      </trkpt>
      <trkpt lat="42.93709" lon="0.16282">
        <ele>1754.54</ele>
        <time>2014-11-02T12:47:58Z</time>
      </trkpt>
      <trkpt lat="42.93699" lon="0.16285">
        <ele>1752.14</ele>
        <time>2014-11-02T12:48:08Z</time>
      </trkpt>
      <trkpt lat="42.9369" lon="0.16288">
        <ele>1750.22</ele>
        <time>2014-11-02T12:48:16Z</time>
      </trkpt>
      <trkpt lat="42.93681" lon="0.16291">
        <ele>1748.78</ele>
        <time>2014-11-02T12:48:26Z</time>
      </trkpt>
      <trkpt lat="42.93677" lon="0.16294">
        <ele>1746.85</ele>
        <time>2014-11-02T12:51:09Z</time>
      </trkpt>
      <trkpt lat="42.93669" lon="0.16302">
        <ele>1746.85</ele>
        <time>2014-11-02T12:51:17Z</time>
      </trkpt>
      <trkpt lat="42.9366" lon="0.16308">
        <ele>1746.37</ele>
        <time>2014-11-02T12:51:27Z</time>
      </trkpt>
      <trkpt lat="42.93651" lon="0.16313">
        <ele>1745.41</ele>
        <time>2014-11-02T12:51:39Z</time>
      </trkpt>
      <trkpt lat="42.93642" lon="0.16316">
        <ele>1743.49</ele>
        <time>2014-11-02T12:51:50Z</time>
      </trkpt>
      <trkpt lat="42.93633" lon="0.16321">
        <ele>1743.49</ele>
        <time>2014-11-02T12:52:00Z</time>
      </trkpt>
      <trkpt lat="42.93625" lon="0.16327">
        <ele>1743.01</ele>
        <time>2014-11-02T12:52:10Z</time>
      </trkpt>
      <trkpt lat="42.93617" lon="0.16335">
        <ele>1741.57</ele>
        <time>2014-11-02T12:52:19Z</time>
      </trkpt>
      <trkpt lat="42.93609" lon="0.1634">
        <ele>1740.12</ele>
        <time>2014-11-02T12:52:28Z</time>
      </trkpt>
      <trkpt lat="42.93601" lon="0.16348">
        <ele>1738.68</ele>
        <time>2014-11-02T12:52:37Z</time>
      </trkpt>
      <trkpt lat="42.93592" lon="0.16354">
        <ele>1736.76</ele>
        <time>2014-11-02T12:52:46Z</time>
      </trkpt>
      <trkpt lat="42.93586" lon="0.16358">
        <ele>1735.32</ele>
        <time>2014-11-02T12:53:32Z</time>
      </trkpt>
      <trkpt lat="42.9358" lon="0.16365">
        <ele>1733.39</ele>
        <time>2014-11-02T12:53:41Z</time>
      </trkpt>
      <trkpt lat="42.93574" lon="0.16373">
        <ele>1731.95</ele>
        <time>2014-11-02T12:54:20Z</time>
      </trkpt>
      <trkpt lat="42.9357" lon="0.16382">
        <ele>1730.03</ele>
        <time>2014-11-02T12:54:28Z</time>
      </trkpt>
      <trkpt lat="42.93566" lon="0.16392">
        <ele>1727.63</ele>
        <time>2014-11-02T12:54:36Z</time>
      </trkpt>
      <trkpt lat="42.93563" lon="0.16405">
        <ele>1725.22</ele>
        <time>2014-11-02T12:54:43Z</time>
      </trkpt>
      <trkpt lat="42.93565" lon="0.16419">
        <ele>1723.78</ele>
        <time>2014-11-02T12:54:50Z</time>
      </trkpt>
      <trkpt lat="42.93566" lon="0.1643">
        <ele>1722.82</ele>
        <time>2014-11-02T12:54:57Z</time>
      </trkpt>
      <trkpt lat="42.9356" lon="0.1644">
        <ele>1722.34</ele>
        <time>2014-11-02T12:55:04Z</time>
      </trkpt>
      <trkpt lat="42.93552" lon="0.1645">
        <ele>1721.38</ele>
        <time>2014-11-02T12:55:12Z</time>
      </trkpt>
      <trkpt lat="42.93547" lon="0.16456">
        <ele>1719.94</ele>
        <time>2014-11-02T12:56:47Z</time>
      </trkpt>
      <trkpt lat="42.9354" lon="0.16466">
        <ele>1718.49</ele>
        <time>2014-11-02T12:56:54Z</time>
      </trkpt>
      <trkpt lat="42.93534" lon="0.16476">
        <ele>1717.05</ele>
        <time>2014-11-02T12:57:01Z</time>
      </trkpt>
      <trkpt lat="42.93527" lon="0.16485">
        <ele>1715.13</ele>
        <time>2014-11-02T12:57:08Z</time>
      </trkpt>
      <trkpt lat="42.9352" lon="0.16494">
        <ele>1713.21</ele>
        <time>2014-11-02T12:57:16Z</time>
      </trkpt>
      <trkpt lat="42.93512" lon="0.16502">
        <ele>1712.25</ele>
        <time>2014-11-02T12:57:24Z</time>
      </trkpt>
      <trkpt lat="42.93505" lon="0.16512">
        <ele>1712.25</ele>
        <time>2014-11-02T12:57:31Z</time>
      </trkpt>
      <trkpt lat="42.93498" lon="0.16522">
        <ele>1711.76</ele>
        <time>2014-11-02T12:57:38Z</time>
      </trkpt>
      <trkpt lat="42.93492" lon="0.16533">
        <ele>1711.28</ele>
        <time>2014-11-02T12:57:45Z</time>
      </trkpt>
      <trkpt lat="42.93486" lon="0.16545">
        <ele>1709.84</ele>
        <time>2014-11-02T12:57:52Z</time>
      </trkpt>
      <trkpt lat="42.93479" lon="0.16552">
        <ele>1709.36</ele>
        <time>2014-11-02T12:57:59Z</time>
      </trkpt>
      <trkpt lat="42.93471" lon="0.1656">
        <ele>1708.4</ele>
        <time>2014-11-02T12:58:06Z</time>
      </trkpt>
      <trkpt lat="42.93465" lon="0.16571">
        <ele>1707.44</ele>
        <time>2014-11-02T12:58:14Z</time>
      </trkpt>
      <trkpt lat="42.93461" lon="0.16582">
        <ele>1706</ele>
        <time>2014-11-02T12:58:21Z</time>
      </trkpt>
      <trkpt lat="42.93455" lon="0.16592">
        <ele>1704.55</ele>
        <time>2014-11-02T12:58:28Z</time>
      </trkpt>
      <trkpt lat="42.93451" lon="0.16605">
        <ele>1704.55</ele>
        <time>2014-11-02T12:58:36Z</time>
      </trkpt>
      <trkpt lat="42.93445" lon="0.16616">
        <ele>1704.07</ele>
        <time>2014-11-02T12:58:43Z</time>
      </trkpt>
      <trkpt lat="42.93437" lon="0.16623">
        <ele>1704.07</ele>
        <time>2014-11-02T12:58:50Z</time>
      </trkpt>
      <trkpt lat="42.93431" lon="0.16632">
        <ele>1703.11</ele>
        <time>2014-11-02T12:58:58Z</time>
      </trkpt>
      <trkpt lat="42.93424" lon="0.16642">
        <ele>1702.15</ele>
        <time>2014-11-02T12:59:07Z</time>
      </trkpt>
      <trkpt lat="42.93419" lon="0.16653">
        <ele>1700.71</ele>
        <time>2014-11-02T12:59:21Z</time>
      </trkpt>
      <trkpt lat="42.93415" lon="0.16664">
        <ele>1699.75</ele>
        <time>2014-11-02T12:59:30Z</time>
      </trkpt>
      <trkpt lat="42.9341" lon="0.16675">
        <ele>1699.27</ele>
        <time>2014-11-02T12:59:39Z</time>
      </trkpt>
      <trkpt lat="42.93404" lon="0.16685">
        <ele>1698.31</ele>
        <time>2014-11-02T12:59:46Z</time>
      </trkpt>
      <trkpt lat="42.93398" lon="0.16695">
        <ele>1698.79</ele>
        <time>2014-11-02T12:59:56Z</time>
      </trkpt>
      <trkpt lat="42.93393" lon="0.16706">
        <ele>1693.98</ele>
        <time>2014-11-02T13:00:14Z</time>
      </trkpt>
      <trkpt lat="42.93388" lon="0.16719">
        <ele>1692.54</ele>
        <time>2014-11-02T13:00:22Z</time>
      </trkpt>
      <trkpt lat="42.93383" lon="0.16731">
        <ele>1691.58</ele>
        <time>2014-11-02T13:00:33Z</time>
      </trkpt>
      <trkpt lat="42.93378" lon="0.1674">
        <ele>1689.17</ele>
        <time>2014-11-02T13:00:50Z</time>
      </trkpt>
      <trkpt lat="42.93373" lon="0.16751">
        <ele>1688.21</ele>
        <time>2014-11-02T13:01:00Z</time>
      </trkpt>
      <trkpt lat="42.93367" lon="0.16762">
        <ele>1686.77</ele>
        <time>2014-11-02T13:01:21Z</time>
      </trkpt>
      <trkpt lat="42.93364" lon="0.16775">
        <ele>1686.29</ele>
        <time>2014-11-02T13:01:33Z</time>
      </trkpt>
      <trkpt lat="42.9336" lon="0.16786">
        <ele>1684.85</ele>
        <time>2014-11-02T13:01:56Z</time>
      </trkpt>
      <trkpt lat="42.93354" lon="0.16794">
        <ele>1683.41</ele>
        <time>2014-11-02T13:02:10Z</time>
      </trkpt>
      <trkpt lat="42.93348" lon="0.16802">
        <ele>1682.44</ele>
        <time>2014-11-02T13:02:23Z</time>
      </trkpt>
      <trkpt lat="42.93342" lon="0.16812">
        <ele>1680.52</ele>
        <time>2014-11-02T13:02:38Z</time>
      </trkpt>
      <trkpt lat="42.93336" lon="0.16822">
        <ele>1679.08</ele>
        <time>2014-11-02T13:02:50Z</time>
      </trkpt>
      <trkpt lat="42.93329" lon="0.1683">
        <ele>1677.64</ele>
        <time>2014-11-02T13:03:02Z</time>
      </trkpt>
      <trkpt lat="42.93323" lon="0.16836">
        <ele>1675.72</ele>
        <time>2014-11-02T13:03:14Z</time>
      </trkpt>
      <trkpt lat="42.93317" lon="0.16846">
        <ele>1673.79</ele>
        <time>2014-11-02T13:03:24Z</time>
      </trkpt>
      <trkpt lat="42.93313" lon="0.16854">
        <ele>1672.83</ele>
        <time>2014-11-02T13:03:35Z</time>
      </trkpt>
      <trkpt lat="42.93304" lon="0.16861">
        <ele>1670.43</ele>
        <time>2014-11-02T13:03:47Z</time>
      </trkpt>
      <trkpt lat="42.93298" lon="0.16868">
        <ele>1668.51</ele>
        <time>2014-11-02T13:03:57Z</time>
      </trkpt>
      <trkpt lat="42.93291" lon="0.16876">
        <ele>1666.1</ele>
        <time>2014-11-02T13:04:07Z</time>
      </trkpt>
      <trkpt lat="42.93291" lon="0.16881">
        <ele>1664.18</ele>
        <time>2014-11-02T13:05:02Z</time>
      </trkpt>
      <trkpt lat="42.93291" lon="0.16885">
        <ele>1666.1</ele>
        <time>2014-11-02T13:12:41Z</time>
      </trkpt>
      <trkpt lat="42.93287" lon="0.16896">
        <ele>1663.22</ele>
        <time>2014-11-02T13:12:52Z</time>
      </trkpt>
      <trkpt lat="42.93283" lon="0.16909">
        <ele>1661.3</ele>
        <time>2014-11-02T13:13:04Z</time>
      </trkpt>
      <trkpt lat="42.93282" lon="0.16919">
        <ele>1659.37</ele>
        <time>2014-11-02T13:13:16Z</time>
      </trkpt>
      <trkpt lat="42.93283" lon="0.16932">
        <ele>1656.97</ele>
        <time>2014-11-02T13:13:30Z</time>
      </trkpt>
      <trkpt lat="42.9328" lon="0.16944">
        <ele>1654.09</ele>
        <time>2014-11-02T13:13:40Z</time>
      </trkpt>
      <trkpt lat="42.93275" lon="0.16956">
        <ele>1651.68</ele>
        <time>2014-11-02T13:13:49Z</time>
      </trkpt>
      <trkpt lat="42.93277" lon="0.16966">
        <ele>1649.28</ele>
        <time>2014-11-02T13:14:00Z</time>
      </trkpt>
      <trkpt lat="42.93277" lon="0.16981">
        <ele>1647.84</ele>
        <time>2014-11-02T13:14:09Z</time>
      </trkpt>
      <trkpt lat="42.93274" lon="0.16993">
        <ele>1645.91</ele>
        <time>2014-11-02T13:14:16Z</time>
      </trkpt>
      <trkpt lat="42.93273" lon="0.17005">
        <ele>1643.51</ele>
        <time>2014-11-02T13:14:25Z</time>
      </trkpt>
      <trkpt lat="42.93272" lon="0.17018">
        <ele>1643.03</ele>
        <time>2014-11-02T13:14:36Z</time>
      </trkpt>
      <trkpt lat="42.93274" lon="0.1703">
        <ele>1641.59</ele>
        <time>2014-11-02T13:14:45Z</time>
      </trkpt>
      <trkpt lat="42.93276" lon="0.17044">
        <ele>1640.63</ele>
        <time>2014-11-02T13:14:54Z</time>
      </trkpt>
      <trkpt lat="42.93277" lon="0.17058">
        <ele>1638.7</ele>
        <time>2014-11-02T13:15:03Z</time>
      </trkpt>
      <trkpt lat="42.93276" lon="0.17071">
        <ele>1637.74</ele>
        <time>2014-11-02T13:15:13Z</time>
      </trkpt>
      <trkpt lat="42.93278" lon="0.17078">
        <ele>1636.78</ele>
        <time>2014-11-02T13:15:28Z</time>
      </trkpt>
      <trkpt lat="42.93278" lon="0.17088">
        <ele>1634.86</ele>
        <time>2014-11-02T13:16:59Z</time>
      </trkpt>
      <trkpt lat="42.93276" lon="0.171">
        <ele>1632.94</ele>
        <time>2014-11-02T13:17:07Z</time>
      </trkpt>
      <trkpt lat="42.93274" lon="0.17112">
        <ele>1631.49</ele>
        <time>2014-11-02T13:17:15Z</time>
      </trkpt>
      <trkpt lat="42.93272" lon="0.17126">
        <ele>1629.09</ele>
        <time>2014-11-02T13:17:25Z</time>
      </trkpt>
      <trkpt lat="42.93269" lon="0.17139">
        <ele>1627.65</ele>
        <time>2014-11-02T13:17:32Z</time>
      </trkpt>
      <trkpt lat="42.93267" lon="0.17153">
        <ele>1627.17</ele>
        <time>2014-11-02T13:17:39Z</time>
      </trkpt>
      <trkpt lat="42.93264" lon="0.17166">
        <ele>1625.73</ele>
        <time>2014-11-02T13:17:46Z</time>
      </trkpt>
      <trkpt lat="42.9326" lon="0.17179">
        <ele>1624.77</ele>
        <time>2014-11-02T13:17:53Z</time>
      </trkpt>
      <trkpt lat="42.93257" lon="0.17192">
        <ele>1623.32</ele>
        <time>2014-11-02T13:17:59Z</time>
      </trkpt>
      <trkpt lat="42.93253" lon="0.17203">
        <ele>1621.4</ele>
        <time>2014-11-02T13:18:06Z</time>
      </trkpt>
      <trkpt lat="42.93252" lon="0.17215">
        <ele>1620.92</ele>
        <time>2014-11-02T13:18:14Z</time>
      </trkpt>
      <trkpt lat="42.9325" lon="0.17228">
        <ele>1619.96</ele>
        <time>2014-11-02T13:18:29Z</time>
      </trkpt>
      <trkpt lat="42.93248" lon="0.1724">
        <ele>1618.52</ele>
        <time>2014-11-02T13:18:36Z</time>
      </trkpt>
      <trkpt lat="42.93248" lon="0.17253">
        <ele>1617.56</ele>
        <time>2014-11-02T13:18:43Z</time>
      </trkpt>
      <trkpt lat="42.93245" lon="0.17266">
        <ele>1616.59</ele>
        <time>2014-11-02T13:18:49Z</time>
      </trkpt>
      <trkpt lat="42.93244" lon="0.1728">
        <ele>1617.07</ele>
        <time>2014-11-02T13:18:56Z</time>
      </trkpt>
      <trkpt lat="42.93242" lon="0.17291">
        <ele>1617.07</ele>
        <time>2014-11-02T13:19:02Z</time>
      </trkpt>
      <trkpt lat="42.93238" lon="0.17303">
        <ele>1617.07</ele>
        <time>2014-11-02T13:19:09Z</time>
      </trkpt>
      <trkpt lat="42.93231" lon="0.17313">
        <ele>1615.63</ele>
        <time>2014-11-02T13:19:16Z</time>
      </trkpt>
      <trkpt lat="42.93225" lon="0.17323">
        <ele>1615.15</ele>
        <time>2014-11-02T13:19:23Z</time>
      </trkpt>
      <trkpt lat="42.93219" lon="0.17331">
        <ele>1615.15</ele>
        <time>2014-11-02T13:19:31Z</time>
      </trkpt>
      <trkpt lat="42.93213" lon="0.17343">
        <ele>1615.15</ele>
        <time>2014-11-02T13:19:39Z</time>
      </trkpt>
      <trkpt lat="42.9321" lon="0.17355">
        <ele>1614.67</ele>
        <time>2014-11-02T13:19:48Z</time>
      </trkpt>
      <trkpt lat="42.93208" lon="0.1737">
        <ele>1614.19</ele>
        <time>2014-11-02T13:19:58Z</time>
      </trkpt>
      <trkpt lat="42.93207" lon="0.17382">
        <ele>1614.67</ele>
        <time>2014-11-02T13:20:08Z</time>
      </trkpt>
      <trkpt lat="42.93205" lon="0.17394">
        <ele>1613.71</ele>
        <time>2014-11-02T13:20:17Z</time>
      </trkpt>
      <trkpt lat="42.93201" lon="0.17406">
        <ele>1613.23</ele>
        <time>2014-11-02T13:20:28Z</time>
      </trkpt>
      <trkpt lat="42.93198" lon="0.17417">
        <ele>1612.27</ele>
        <time>2014-11-02T13:20:36Z</time>
      </trkpt>
      <trkpt lat="42.93196" lon="0.1743">
        <ele>1611.31</ele>
        <time>2014-11-02T13:20:46Z</time>
      </trkpt>
      <trkpt lat="42.93193" lon="0.17442">
        <ele>1610.83</ele>
        <time>2014-11-02T13:20:56Z</time>
      </trkpt>
      <trkpt lat="42.93191" lon="0.17453">
        <ele>1609.86</ele>
        <time>2014-11-02T13:21:06Z</time>
      </trkpt>
      <trkpt lat="42.93187" lon="0.17464">
        <ele>1609.86</ele>
        <time>2014-11-02T13:21:15Z</time>
      </trkpt>
      <trkpt lat="42.93183" lon="0.17474">
        <ele>1608.42</ele>
        <time>2014-11-02T13:21:25Z</time>
      </trkpt>
      <trkpt lat="42.93189" lon="0.17485">
        <ele>1607.94</ele>
        <time>2014-11-02T13:21:36Z</time>
      </trkpt>
      <trkpt lat="42.93182" lon="0.17496">
        <ele>1608.42</ele>
        <time>2014-11-02T13:21:47Z</time>
      </trkpt>
      <trkpt lat="42.9318" lon="0.17507">
        <ele>1608.42</ele>
        <time>2014-11-02T13:21:58Z</time>
      </trkpt>
      <trkpt lat="42.93186" lon="0.17515">
        <ele>1606.98</ele>
        <time>2014-11-02T13:22:10Z</time>
      </trkpt>
      <trkpt lat="42.93183" lon="0.1753">
        <ele>1606.02</ele>
        <time>2014-11-02T13:22:23Z</time>
      </trkpt>
      <trkpt lat="42.93174" lon="0.17538">
        <ele>1606.5</ele>
        <time>2014-11-02T13:22:34Z</time>
      </trkpt>
      <trkpt lat="42.93167" lon="0.17546">
        <ele>1606.98</ele>
        <time>2014-11-02T13:22:44Z</time>
      </trkpt>
      <trkpt lat="42.93162" lon="0.17556">
        <ele>1606.02</ele>
        <time>2014-11-02T13:22:53Z</time>
      </trkpt>
      <trkpt lat="42.93157" lon="0.17568">
        <ele>1605.54</ele>
        <time>2014-11-02T13:23:02Z</time>
      </trkpt>
      <trkpt lat="42.93154" lon="0.17579">
        <ele>1604.1</ele>
        <time>2014-11-02T13:23:10Z</time>
      </trkpt>
      <trkpt lat="42.93151" lon="0.1759">
        <ele>1603.62</ele>
        <time>2014-11-02T13:23:19Z</time>
      </trkpt>
      <trkpt lat="42.93147" lon="0.17602">
        <ele>1602.66</ele>
        <time>2014-11-02T13:23:28Z</time>
      </trkpt>
      <trkpt lat="42.93146" lon="0.17613">
        <ele>1602.17</ele>
        <time>2014-11-02T13:23:37Z</time>
      </trkpt>
      <trkpt lat="42.93144" lon="0.17625">
        <ele>1602.66</ele>
        <time>2014-11-02T13:23:49Z</time>
      </trkpt>
      <trkpt lat="42.93139" lon="0.17637">
        <ele>1601.69</ele>
        <time>2014-11-02T13:24:01Z</time>
      </trkpt>
      <trkpt lat="42.93133" lon="0.17648">
        <ele>1601.21</ele>
        <time>2014-11-02T13:24:11Z</time>
      </trkpt>
      <trkpt lat="42.93129" lon="0.17659">
        <ele>1600.73</ele>
        <time>2014-11-02T13:24:21Z</time>
      </trkpt>
      <trkpt lat="42.93127" lon="0.1767">
        <ele>1600.73</ele>
        <time>2014-11-02T13:24:29Z</time>
      </trkpt>
      <trkpt lat="42.93124" lon="0.17681">
        <ele>1599.77</ele>
        <time>2014-11-02T13:24:37Z</time>
      </trkpt>
      <trkpt lat="42.93121" lon="0.17692">
        <ele>1599.29</ele>
        <time>2014-11-02T13:24:46Z</time>
      </trkpt>
      <trkpt lat="42.93117" lon="0.17704">
        <ele>1598.81</ele>
        <time>2014-11-02T13:24:55Z</time>
      </trkpt>
      <trkpt lat="42.93113" lon="0.17715">
        <ele>1597.37</ele>
        <time>2014-11-02T13:25:04Z</time>
      </trkpt>
      <trkpt lat="42.93106" lon="0.17726">
        <ele>1597.85</ele>
        <time>2014-11-02T13:25:14Z</time>
      </trkpt>
      <trkpt lat="42.93101" lon="0.17738">
        <ele>1596.89</ele>
        <time>2014-11-02T13:25:23Z</time>
      </trkpt>
      <trkpt lat="42.93096" lon="0.17748">
        <ele>1594.96</ele>
        <time>2014-11-02T13:25:33Z</time>
      </trkpt>
      <trkpt lat="42.93092" lon="0.17759">
        <ele>1594.48</ele>
        <time>2014-11-02T13:25:42Z</time>
      </trkpt>
      <trkpt lat="42.93085" lon="0.17768">
        <ele>1592.56</ele>
        <time>2014-11-02T13:25:52Z</time>
      </trkpt>
      <trkpt lat="42.9308" lon="0.17779">
        <ele>1591.6</ele>
        <time>2014-11-02T13:26:02Z</time>
      </trkpt>
      <trkpt lat="42.93074" lon="0.17791">
        <ele>1590.64</ele>
        <time>2014-11-02T13:26:12Z</time>
      </trkpt>
      <trkpt lat="42.93069" lon="0.17802">
        <ele>1589.2</ele>
        <time>2014-11-02T13:26:21Z</time>
      </trkpt>
      <trkpt lat="42.93063" lon="0.17813">
        <ele>1587.75</ele>
        <time>2014-11-02T13:26:30Z</time>
      </trkpt>
      <trkpt lat="42.93057" lon="0.17819">
        <ele>1587.27</ele>
        <time>2014-11-02T13:26:39Z</time>
      </trkpt>
      <trkpt lat="42.9305" lon="0.17829">
        <ele>1586.31</ele>
        <time>2014-11-02T13:26:48Z</time>
      </trkpt>
      <trkpt lat="42.93044" lon="0.17839">
        <ele>1585.35</ele>
        <time>2014-11-02T13:26:58Z</time>
      </trkpt>
      <trkpt lat="42.93039" lon="0.17847">
        <ele>1584.39</ele>
        <time>2014-11-02T13:27:07Z</time>
      </trkpt>
      <trkpt lat="42.93031" lon="0.17857">
        <ele>1583.43</ele>
        <time>2014-11-02T13:27:16Z</time>
      </trkpt>
      <trkpt lat="42.93025" lon="0.17865">
        <ele>1581.99</ele>
        <time>2014-11-02T13:27:25Z</time>
      </trkpt>
      <trkpt lat="42.93018" lon="0.17873">
        <ele>1581.03</ele>
        <time>2014-11-02T13:27:34Z</time>
      </trkpt>
      <trkpt lat="42.93012" lon="0.17884">
        <ele>1580.06</ele>
        <time>2014-11-02T13:27:43Z</time>
      </trkpt>
      <trkpt lat="42.93007" lon="0.17894">
        <ele>1579.1</ele>
        <time>2014-11-02T13:27:52Z</time>
      </trkpt>
      <trkpt lat="42.93003" lon="0.17905">
        <ele>1578.62</ele>
        <time>2014-11-02T13:28:01Z</time>
      </trkpt>
      <trkpt lat="42.92998" lon="0.17915">
        <ele>1578.14</ele>
        <time>2014-11-02T13:28:10Z</time>
      </trkpt>
      <trkpt lat="42.92993" lon="0.17926">
        <ele>1575.74</ele>
        <time>2014-11-02T13:28:19Z</time>
      </trkpt>
      <trkpt lat="42.92989" lon="0.17937">
        <ele>1574.78</ele>
        <time>2014-11-02T13:28:28Z</time>
      </trkpt>
      <trkpt lat="42.92985" lon="0.17949">
        <ele>1574.3</ele>
        <time>2014-11-02T13:28:43Z</time>
      </trkpt>
      <trkpt lat="42.9298" lon="0.1796">
        <ele>1573.33</ele>
        <time>2014-11-02T13:28:56Z</time>
      </trkpt>
      <trkpt lat="42.92976" lon="0.17971">
        <ele>1572.37</ele>
        <time>2014-11-02T13:29:04Z</time>
      </trkpt>
      <trkpt lat="42.92973" lon="0.17981">
        <ele>1571.89</ele>
        <time>2014-11-02T13:29:12Z</time>
      </trkpt>
      <trkpt lat="42.92968" lon="0.17995">
        <ele>1571.41</ele>
        <time>2014-11-02T13:29:21Z</time>
      </trkpt>
      <trkpt lat="42.92966" lon="0.18006">
        <ele>1571.41</ele>
        <time>2014-11-02T13:29:30Z</time>
      </trkpt>
      <trkpt lat="42.92966" lon="0.18017">
        <ele>1571.89</ele>
        <time>2014-11-02T13:29:39Z</time>
      </trkpt>
      <trkpt lat="42.92968" lon="0.18031">
        <ele>1571.89</ele>
        <time>2014-11-02T13:29:48Z</time>
      </trkpt>
      <trkpt lat="42.92967" lon="0.18046">
        <ele>1571.41</ele>
        <time>2014-11-02T13:29:57Z</time>
      </trkpt>
      <trkpt lat="42.92966" lon="0.18059">
        <ele>1570.93</ele>
        <time>2014-11-02T13:30:07Z</time>
      </trkpt>
      <trkpt lat="42.9296" lon="0.18069">
        <ele>1570.45</ele>
        <time>2014-11-02T13:30:16Z</time>
      </trkpt>
      <trkpt lat="42.92956" lon="0.18081">
        <ele>1569.97</ele>
        <time>2014-11-02T13:30:25Z</time>
      </trkpt>
      <trkpt lat="42.9295" lon="0.1809">
        <ele>1569.97</ele>
        <time>2014-11-02T13:30:34Z</time>
      </trkpt>
      <trkpt lat="42.92943" lon="0.18098">
        <ele>1569.97</ele>
        <time>2014-11-02T13:30:43Z</time>
      </trkpt>
      <trkpt lat="42.92938" lon="0.18109">
        <ele>1569.97</ele>
        <time>2014-11-02T13:30:52Z</time>
      </trkpt>
      <trkpt lat="42.92931" lon="0.18117">
        <ele>1568.53</ele>
        <time>2014-11-02T13:31:02Z</time>
      </trkpt>
      <trkpt lat="42.92926" lon="0.18125">
        <ele>1567.57</ele>
        <time>2014-11-02T13:31:18Z</time>
      </trkpt>
      <trkpt lat="42.92918" lon="0.18132">
        <ele>1567.09</ele>
        <time>2014-11-02T13:31:27Z</time>
      </trkpt>
      <trkpt lat="42.92909" lon="0.18135">
        <ele>1566.61</ele>
        <time>2014-11-02T13:31:36Z</time>
      </trkpt>
      <trkpt lat="42.92901" lon="0.18142">
        <ele>1565.64</ele>
        <time>2014-11-02T13:31:44Z</time>
      </trkpt>
      <trkpt lat="42.92894" lon="0.18151">
        <ele>1567.09</ele>
        <time>2014-11-02T13:31:54Z</time>
      </trkpt>
      <trkpt lat="42.92887" lon="0.18161">
        <ele>1567.57</ele>
        <time>2014-11-02T13:32:04Z</time>
      </trkpt>
      <trkpt lat="42.92881" lon="0.18171">
        <ele>1567.57</ele>
        <time>2014-11-02T13:32:15Z</time>
      </trkpt>
      <trkpt lat="42.92873" lon="0.1818">
        <ele>1567.57</ele>
        <time>2014-11-02T13:32:24Z</time>
      </trkpt>
      <trkpt lat="42.92866" lon="0.18188">
        <ele>1568.05</ele>
        <time>2014-11-02T13:32:33Z</time>
      </trkpt>
      <trkpt lat="42.9286" lon="0.18196">
        <ele>1566.61</ele>
        <time>2014-11-02T13:32:42Z</time>
      </trkpt>
      <trkpt lat="42.92854" lon="0.18207">
        <ele>1565.16</ele>
        <time>2014-11-02T13:32:52Z</time>
      </trkpt>
      <trkpt lat="42.92849" lon="0.18217">
        <ele>1564.2</ele>
        <time>2014-11-02T13:33:01Z</time>
      </trkpt>
      <trkpt lat="42.92847" lon="0.18229">
        <ele>1563.24</ele>
        <time>2014-11-02T13:33:10Z</time>
      </trkpt>
      <trkpt lat="42.92843" lon="0.1824">
        <ele>1563.24</ele>
        <time>2014-11-02T13:33:20Z</time>
      </trkpt>
      <trkpt lat="42.92837" lon="0.1825">
        <ele>1561.8</ele>
        <time>2014-11-02T13:33:30Z</time>
      </trkpt>
      <trkpt lat="42.92831" lon="0.18262">
        <ele>1561.32</ele>
        <time>2014-11-02T13:33:41Z</time>
      </trkpt>
      <trkpt lat="42.92829" lon="0.18267">
        <ele>1559.88</ele>
        <time>2014-11-02T13:38:12Z</time>
      </trkpt>
      <trkpt lat="42.92821" lon="0.18276">
        <ele>1558.92</ele>
        <time>2014-11-02T13:38:28Z</time>
      </trkpt>
      <trkpt lat="42.92816" lon="0.18286">
        <ele>1557.95</ele>
        <time>2014-11-02T13:38:43Z</time>
      </trkpt>
      <trkpt lat="42.92811" lon="0.18294">
        <ele>1556.03</ele>
        <time>2014-11-02T13:38:58Z</time>
      </trkpt>
      <trkpt lat="42.92808" lon="0.18304">
        <ele>1554.59</ele>
        <time>2014-11-02T13:39:13Z</time>
      </trkpt>
      <trkpt lat="42.92807" lon="0.18315">
        <ele>1552.67</ele>
        <time>2014-11-02T13:39:28Z</time>
      </trkpt>
      <trkpt lat="42.92805" lon="0.18329">
        <ele>1551.22</ele>
        <time>2014-11-02T13:39:40Z</time>
      </trkpt>
      <trkpt lat="42.92802" lon="0.1834">
        <ele>1549.78</ele>
        <time>2014-11-02T13:39:51Z</time>
      </trkpt>
      <trkpt lat="42.92802" lon="0.18353">
        <ele>1549.3</ele>
        <time>2014-11-02T13:40:00Z</time>
      </trkpt>
      <trkpt lat="42.92798" lon="0.18365">
        <ele>1548.34</ele>
        <time>2014-11-02T13:40:26Z</time>
      </trkpt>
      <trkpt lat="42.92796" lon="0.18378">
        <ele>1546.9</ele>
        <time>2014-11-02T13:40:35Z</time>
      </trkpt>
      <trkpt lat="42.92792" lon="0.1839">
        <ele>1545.46</ele>
        <time>2014-11-02T13:40:45Z</time>
      </trkpt>
      <trkpt lat="42.92789" lon="0.18402">
        <ele>1544.01</ele>
        <time>2014-11-02T13:40:56Z</time>
      </trkpt>
      <trkpt lat="42.92784" lon="0.18412">
        <ele>1543.53</ele>
        <time>2014-11-02T13:41:06Z</time>
      </trkpt>
      <trkpt lat="42.92776" lon="0.1842">
        <ele>1541.61</ele>
        <time>2014-11-02T13:41:16Z</time>
      </trkpt>
      <trkpt lat="42.92769" lon="0.18427">
        <ele>1540.65</ele>
        <time>2014-11-02T13:41:27Z</time>
      </trkpt>
      <trkpt lat="42.92763" lon="0.18436">
        <ele>1538.73</ele>
        <time>2014-11-02T13:41:37Z</time>
      </trkpt>
      <trkpt lat="42.92756" lon="0.18444">
        <ele>1537.77</ele>
        <time>2014-11-02T13:41:46Z</time>
      </trkpt>
      <trkpt lat="42.92748" lon="0.18449">
        <ele>1536.8</ele>
        <time>2014-11-02T13:41:54Z</time>
      </trkpt>
      <trkpt lat="42.92739" lon="0.18454">
        <ele>1534.88</ele>
        <time>2014-11-02T13:42:05Z</time>
      </trkpt>
      <trkpt lat="42.92732" lon="0.18457">
        <ele>1533.92</ele>
        <time>2014-11-02T13:42:55Z</time>
      </trkpt>
      <trkpt lat="42.92723" lon="0.18464">
        <ele>1532.48</ele>
        <time>2014-11-02T13:43:03Z</time>
      </trkpt>
      <trkpt lat="42.92714" lon="0.18469">
        <ele>1532</ele>
        <time>2014-11-02T13:43:10Z</time>
      </trkpt>
      <trkpt lat="42.92706" lon="0.18477">
        <ele>1530.08</ele>
        <time>2014-11-02T13:43:19Z</time>
      </trkpt>
      <trkpt lat="42.92698" lon="0.18484">
        <ele>1528.63</ele>
        <time>2014-11-02T13:44:04Z</time>
      </trkpt>
      <trkpt lat="42.92693" lon="0.1849">
        <ele>1527.19</ele>
        <time>2014-11-02T13:44:33Z</time>
      </trkpt>
      <trkpt lat="42.92685" lon="0.185">
        <ele>1525.75</ele>
        <time>2014-11-02T13:44:40Z</time>
      </trkpt>
      <trkpt lat="42.92678" lon="0.18508">
        <ele>1524.79</ele>
        <time>2014-11-02T13:44:47Z</time>
      </trkpt>
      <trkpt lat="42.92671" lon="0.18517">
        <ele>1522.39</ele>
        <time>2014-11-02T13:44:54Z</time>
      </trkpt>
      <trkpt lat="42.92665" lon="0.1853">
        <ele>1519.98</ele>
        <time>2014-11-02T13:45:02Z</time>
      </trkpt>
      <trkpt lat="42.92658" lon="0.18538">
        <ele>1518.06</ele>
        <time>2014-11-02T13:45:08Z</time>
      </trkpt>
      <trkpt lat="42.92653" lon="0.1855">
        <ele>1516.62</ele>
        <time>2014-11-02T13:45:15Z</time>
      </trkpt>
      <trkpt lat="42.92647" lon="0.18562">
        <ele>1514.69</ele>
        <time>2014-11-02T13:45:22Z</time>
      </trkpt>
      <trkpt lat="42.92642" lon="0.18575">
        <ele>1512.77</ele>
        <time>2014-11-02T13:45:28Z</time>
      </trkpt>
      <trkpt lat="42.92636" lon="0.18585">
        <ele>1510.37</ele>
        <time>2014-11-02T13:45:34Z</time>
      </trkpt>
      <trkpt lat="42.92631" lon="0.18598">
        <ele>1508.45</ele>
        <time>2014-11-02T13:45:40Z</time>
      </trkpt>
      <trkpt lat="42.92631" lon="0.18609">
        <ele>1507</ele>
        <time>2014-11-02T13:45:47Z</time>
      </trkpt>
      <trkpt lat="42.92626" lon="0.18622">
        <ele>1504.6</ele>
        <time>2014-11-02T13:45:55Z</time>
      </trkpt>
      <trkpt lat="42.92625" lon="0.18636">
        <ele>1503.16</ele>
        <time>2014-11-02T13:46:03Z</time>
      </trkpt>
      <trkpt lat="42.92624" lon="0.18649">
        <ele>1500.27</ele>
        <time>2014-11-02T13:46:12Z</time>
      </trkpt>
      <trkpt lat="42.92621" lon="0.18662">
        <ele>1497.87</ele>
        <time>2014-11-02T13:46:22Z</time>
      </trkpt>
      <trkpt lat="42.92618" lon="0.18673">
        <ele>1494.51</ele>
        <time>2014-11-02T13:46:44Z</time>
      </trkpt>
      <trkpt lat="42.92616" lon="0.18684">
        <ele>1492.58</ele>
        <time>2014-11-02T13:46:55Z</time>
      </trkpt>
      <trkpt lat="42.92615" lon="0.18698">
        <ele>1491.14</ele>
        <time>2014-11-02T13:47:17Z</time>
      </trkpt>
      <trkpt lat="42.92614" lon="0.18713">
        <ele>1490.18</ele>
        <time>2014-11-02T13:47:27Z</time>
      </trkpt>
      <trkpt lat="42.92613" lon="0.18727">
        <ele>1488.74</ele>
        <time>2014-11-02T13:47:34Z</time>
      </trkpt>
      <trkpt lat="42.92613" lon="0.18739">
        <ele>1487.3</ele>
        <time>2014-11-02T13:47:45Z</time>
      </trkpt>
      <trkpt lat="42.92609" lon="0.18751">
        <ele>1485.85</ele>
        <time>2014-11-02T13:47:59Z</time>
      </trkpt>
      <trkpt lat="42.92606" lon="0.18767">
        <ele>1483.45</ele>
        <time>2014-11-02T13:48:11Z</time>
      </trkpt>
      <trkpt lat="42.92602" lon="0.18778">
        <ele>1482.01</ele>
        <time>2014-11-02T13:48:22Z</time>
      </trkpt>
      <trkpt lat="42.92599" lon="0.18788">
        <ele>1480.09</ele>
        <time>2014-11-02T13:48:38Z</time>
      </trkpt>
      <trkpt lat="42.92597" lon="0.18801">
        <ele>1476.72</ele>
        <time>2014-11-02T13:48:54Z</time>
      </trkpt>
      <trkpt lat="42.92593" lon="0.18814">
        <ele>1474.8</ele>
        <time>2014-11-02T13:49:06Z</time>
      </trkpt>
      <trkpt lat="42.92591" lon="0.18829">
        <ele>1471.44</ele>
        <time>2014-11-02T13:49:21Z</time>
      </trkpt>
      <trkpt lat="42.92594" lon="0.18842">
        <ele>1469.51</ele>
        <time>2014-11-02T13:49:35Z</time>
      </trkpt>
      <trkpt lat="42.92595" lon="0.18853">
        <ele>1468.07</ele>
        <time>2014-11-02T13:51:10Z</time>
      </trkpt>
      <trkpt lat="42.92602" lon="0.18864">
        <ele>1466.63</ele>
        <time>2014-11-02T13:51:22Z</time>
      </trkpt>
      <trkpt lat="42.92607" lon="0.18873">
        <ele>1464.71</ele>
        <time>2014-11-02T13:51:32Z</time>
      </trkpt>
      <trkpt lat="42.92603" lon="0.18885">
        <ele>1464.23</ele>
        <time>2014-11-02T13:52:55Z</time>
      </trkpt>
      <trkpt lat="42.92608" lon="0.18897">
        <ele>1462.78</ele>
        <time>2014-11-02T13:53:21Z</time>
      </trkpt>
      <trkpt lat="42.92611" lon="0.18909">
        <ele>1461.34</ele>
        <time>2014-11-02T13:53:32Z</time>
      </trkpt>
      <trkpt lat="42.92614" lon="0.18921">
        <ele>1459.9</ele>
        <time>2014-11-02T13:53:42Z</time>
      </trkpt>
      <trkpt lat="42.92613" lon="0.18935">
        <ele>1458.94</ele>
        <time>2014-11-02T13:53:50Z</time>
      </trkpt>
      <trkpt lat="42.92612" lon="0.18947">
        <ele>1457.5</ele>
        <time>2014-11-02T13:53:59Z</time>
      </trkpt>
      <trkpt lat="42.9261" lon="0.18959">
        <ele>1456.05</ele>
        <time>2014-11-02T13:54:06Z</time>
      </trkpt>
      <trkpt lat="42.92606" lon="0.18971">
        <ele>1455.09</ele>
        <time>2014-11-02T13:54:14Z</time>
      </trkpt>
      <trkpt lat="42.92606" lon="0.18983">
        <ele>1452.69</ele>
        <time>2014-11-02T13:54:22Z</time>
      </trkpt>
      <trkpt lat="42.92606" lon="0.18995">
        <ele>1451.73</ele>
        <time>2014-11-02T13:54:29Z</time>
      </trkpt>
      <trkpt lat="42.92601" lon="0.19007">
        <ele>1449.81</ele>
        <time>2014-11-02T13:54:36Z</time>
      </trkpt>
      <trkpt lat="42.92598" lon="0.19018">
        <ele>1448.84</ele>
        <time>2014-11-02T13:54:43Z</time>
      </trkpt>
      <trkpt lat="42.92595" lon="0.19028">
        <ele>1447.4</ele>
        <time>2014-11-02T13:54:51Z</time>
      </trkpt>
      <trkpt lat="42.92591" lon="0.19039">
        <ele>1444.52</ele>
        <time>2014-11-02T13:54:59Z</time>
      </trkpt>
      <trkpt lat="42.92587" lon="0.1905">
        <ele>1442.6</ele>
        <time>2014-11-02T13:55:07Z</time>
      </trkpt>
      <trkpt lat="42.9258" lon="0.1906">
        <ele>1440.67</ele>
        <time>2014-11-02T13:55:14Z</time>
      </trkpt>
      <trkpt lat="42.92571" lon="0.19065">
        <ele>1439.23</ele>
        <time>2014-11-02T13:55:22Z</time>
      </trkpt>
      <trkpt lat="42.9257" lon="0.19061">
        <ele>1439.23</ele>
        <time>2014-11-02T13:56:48Z</time>
      </trkpt>
      <trkpt lat="42.92579" lon="0.19069">
        <ele>1439.23</ele>
        <time>2014-11-02T13:56:58Z</time>
      </trkpt>
      <trkpt lat="42.92582" lon="0.19081">
        <ele>1439.23</ele>
        <time>2014-11-02T13:57:08Z</time>
      </trkpt>
      <trkpt lat="42.92578" lon="0.19093">
        <ele>1437.79</ele>
        <time>2014-11-02T13:57:16Z</time>
      </trkpt>
      <trkpt lat="42.92575" lon="0.19105">
        <ele>1436.83</ele>
        <time>2014-11-02T13:57:24Z</time>
      </trkpt>
      <trkpt lat="42.92572" lon="0.19118">
        <ele>1435.87</ele>
        <time>2014-11-02T13:57:32Z</time>
      </trkpt>
      <trkpt lat="42.92567" lon="0.19128">
        <ele>1434.42</ele>
        <time>2014-11-02T13:57:40Z</time>
      </trkpt>
      <trkpt lat="42.92562" lon="0.19139">
        <ele>1433.46</ele>
        <time>2014-11-02T13:57:48Z</time>
      </trkpt>
      <trkpt lat="42.92558" lon="0.19152">
        <ele>1432.5</ele>
        <time>2014-11-02T13:57:56Z</time>
      </trkpt>
      <trkpt lat="42.92557" lon="0.1916">
        <ele>1431.54</ele>
        <time>2014-11-02T13:58:49Z</time>
      </trkpt>
      <trkpt lat="42.92555" lon="0.19175">
        <ele>1430.1</ele>
        <time>2014-11-02T13:58:59Z</time>
      </trkpt>
      <trkpt lat="42.92554" lon="0.19189">
        <ele>1429.14</ele>
        <time>2014-11-02T13:59:09Z</time>
      </trkpt>
      <trkpt lat="42.92553" lon="0.19199">
        <ele>1428.18</ele>
        <time>2014-11-02T13:59:44Z</time>
      </trkpt>
      <trkpt lat="42.9255" lon="0.19212">
        <ele>1427.21</ele>
        <time>2014-11-02T13:59:54Z</time>
      </trkpt>
      <trkpt lat="42.92548" lon="0.19224">
        <ele>1425.77</ele>
        <time>2014-11-02T14:00:03Z</time>
      </trkpt>
      <trkpt lat="42.92548" lon="0.19237">
        <ele>1425.29</ele>
        <time>2014-11-02T14:00:11Z</time>
      </trkpt>
      <trkpt lat="42.92546" lon="0.1925">
        <ele>1424.33</ele>
        <time>2014-11-02T14:00:19Z</time>
      </trkpt>
      <trkpt lat="42.92543" lon="0.19262">
        <ele>1423.37</ele>
        <time>2014-11-02T14:00:28Z</time>
      </trkpt>
      <trkpt lat="42.9254" lon="0.19273">
        <ele>1421.93</ele>
        <time>2014-11-02T14:00:45Z</time>
      </trkpt>
      <trkpt lat="42.92539" lon="0.19285">
        <ele>1421.45</ele>
        <time>2014-11-02T14:00:54Z</time>
      </trkpt>
      <trkpt lat="42.92542" lon="0.19295">
        <ele>1420</ele>
        <time>2014-11-02T14:01:03Z</time>
      </trkpt>
    </trkseg>
  </trk>
</gpx>